<?xml version="1.0" encoding="UTF-8" standalone="no" ?>
<gpx xmlns="http://www.topografix.com/GPX/1/1" xmlns:xsi="http://www.w3.org/2001/XMLSchema-instance" xsi:schemaLocation="http://www.topografix.com/GPX/1/1 http://www.topografix.com/GPX/1/1/gpx.xsd" version="1.1" creator="VisuGPX - https://www.visugpx.com">
  <metadata>
    <name>St Gabriel - Les Traversiéres</name>
    <desc><![CDATA[Bois et garrigues]]></desc>
  </metadata>
  <trk>
    <name><![CDATA[2013-04-14 17:07:56]]></name>
    <trkseg>
      <trkpt lat="43.76663" lon="4.69527">
        <ele>18.08</ele>
        <time>2013-04-14T07:52:26Z</time>
      </trkpt>
      <trkpt lat="43.76664" lon="4.69529">
        <ele>13.66</ele>
        <time>2013-04-14T07:52:28Z</time>
      </trkpt>
      <trkpt lat="43.76665" lon="4.69531">
        <ele>12.33</ele>
        <time>2013-04-14T07:52:31Z</time>
      </trkpt>
      <trkpt lat="43.76668" lon="4.69547">
        <ele>15.33</ele>
        <time>2013-04-14T07:52:50Z</time>
      </trkpt>
      <trkpt lat="43.76664" lon="4.69567">
        <ele>18.29</ele>
        <time>2013-04-14T07:53:13Z</time>
      </trkpt>
      <trkpt lat="43.76666" lon="4.69578">
        <ele>21.33</ele>
        <time>2013-04-14T07:53:34Z</time>
      </trkpt>
      <trkpt lat="43.76667" lon="4.69601">
        <ele>24.36</ele>
        <time>2013-04-14T07:53:57Z</time>
      </trkpt>
      <trkpt lat="43.76675" lon="4.69621">
        <ele>27.41</ele>
        <time>2013-04-14T07:54:19Z</time>
      </trkpt>
      <trkpt lat="43.76677" lon="4.69633">
        <ele>30.33</ele>
        <time>2013-04-14T07:54:54Z</time>
      </trkpt>
      <trkpt lat="43.7667" lon="4.69675">
        <ele>32.7</ele>
        <time>2013-04-14T07:55:34Z</time>
      </trkpt>
      <trkpt lat="43.76659" lon="4.69711">
        <ele>35.62</ele>
        <time>2013-04-14T07:56:08Z</time>
      </trkpt>
      <trkpt lat="43.76659" lon="4.69739">
        <ele>38.64</ele>
        <time>2013-04-14T07:56:33Z</time>
      </trkpt>
      <trkpt lat="43.76649" lon="4.69765">
        <ele>40.79</ele>
        <time>2013-04-14T07:57:02Z</time>
      </trkpt>
      <trkpt lat="43.76641" lon="4.69798">
        <ele>43.16</ele>
        <time>2013-04-14T07:57:31Z</time>
      </trkpt>
      <trkpt lat="43.76616" lon="4.69809">
        <ele>43.98</ele>
        <time>2013-04-14T07:57:55Z</time>
      </trkpt>
      <trkpt lat="43.76601" lon="4.69821">
        <ele>45.9</ele>
        <time>2013-04-14T07:58:21Z</time>
      </trkpt>
      <trkpt lat="43.76591" lon="4.69845">
        <ele>47.12</ele>
        <time>2013-04-14T07:58:45Z</time>
      </trkpt>
      <trkpt lat="43.76592" lon="4.69886">
        <ele>48.33</ele>
        <time>2013-04-14T07:59:15Z</time>
      </trkpt>
      <trkpt lat="43.76575" lon="4.69914">
        <ele>50.17</ele>
        <time>2013-04-14T07:59:41Z</time>
      </trkpt>
      <trkpt lat="43.76554" lon="4.69919">
        <ele>50.65</ele>
        <time>2013-04-14T08:00:03Z</time>
      </trkpt>
      <trkpt lat="43.76528" lon="4.69926">
        <ele>51.51</ele>
        <time>2013-04-14T08:00:29Z</time>
      </trkpt>
      <trkpt lat="43.76503" lon="4.69925">
        <ele>51.5</ele>
        <time>2013-04-14T08:00:58Z</time>
      </trkpt>
      <trkpt lat="43.76478" lon="4.69923">
        <ele>50.99</ele>
        <time>2013-04-14T08:01:25Z</time>
      </trkpt>
      <trkpt lat="43.76452" lon="4.69914">
        <ele>49.74</ele>
        <time>2013-04-14T08:01:52Z</time>
      </trkpt>
      <trkpt lat="43.76422" lon="4.69912">
        <ele>48.29</ele>
        <time>2013-04-14T08:02:20Z</time>
      </trkpt>
      <trkpt lat="43.76402" lon="4.69924">
        <ele>47.01</ele>
        <time>2013-04-14T08:02:47Z</time>
      </trkpt>
      <trkpt lat="43.76395" lon="4.69933">
        <ele>46.5</ele>
        <time>2013-04-14T08:02:56Z</time>
      </trkpt>
      <trkpt lat="43.76377" lon="4.69932">
        <ele>43.7</ele>
        <time>2013-04-14T08:03:19Z</time>
      </trkpt>
      <trkpt lat="43.76356" lon="4.69923">
        <ele>41.98</ele>
        <time>2013-04-14T08:03:42Z</time>
      </trkpt>
      <trkpt lat="43.76329" lon="4.69912">
        <ele>42.69</ele>
        <time>2013-04-14T08:04:10Z</time>
      </trkpt>
      <trkpt lat="43.76325" lon="4.69909">
        <ele>42.93</ele>
        <time>2013-04-14T08:04:15Z</time>
      </trkpt>
      <trkpt lat="43.7631" lon="4.699">
        <ele>42.75</ele>
        <time>2013-04-14T08:04:31Z</time>
      </trkpt>
      <trkpt lat="43.76293" lon="4.69893">
        <ele>42.81</ele>
        <time>2013-04-14T08:04:46Z</time>
      </trkpt>
      <trkpt lat="43.7628" lon="4.69891">
        <ele>43.16</ele>
        <time>2013-04-14T08:05:01Z</time>
      </trkpt>
      <trkpt lat="43.76251" lon="4.69888">
        <ele>43.01</ele>
        <time>2013-04-14T08:05:29Z</time>
      </trkpt>
      <trkpt lat="43.76226" lon="4.69891">
        <ele>43.05</ele>
        <time>2013-04-14T08:05:56Z</time>
      </trkpt>
      <trkpt lat="43.7622" lon="4.69912">
        <ele>44.22</ele>
        <time>2013-04-14T08:06:20Z</time>
      </trkpt>
      <trkpt lat="43.76216" lon="4.69938">
        <ele>45.66</ele>
        <time>2013-04-14T08:06:45Z</time>
      </trkpt>
      <trkpt lat="43.76206" lon="4.69971">
        <ele>47.71</ele>
        <time>2013-04-14T08:07:13Z</time>
      </trkpt>
      <trkpt lat="43.76187" lon="4.69999">
        <ele>49.8</ele>
        <time>2013-04-14T08:07:41Z</time>
      </trkpt>
      <trkpt lat="43.76163" lon="4.70022">
        <ele>51.38</ele>
        <time>2013-04-14T08:08:12Z</time>
      </trkpt>
      <trkpt lat="43.7614" lon="4.70041">
        <ele>53.15</ele>
        <time>2013-04-14T08:08:38Z</time>
      </trkpt>
      <trkpt lat="43.76117" lon="4.70054">
        <ele>54.74</ele>
        <time>2013-04-14T08:09:04Z</time>
      </trkpt>
      <trkpt lat="43.76101" lon="4.70082">
        <ele>56.67</ele>
        <time>2013-04-14T08:09:30Z</time>
      </trkpt>
      <trkpt lat="43.76096" lon="4.70096">
        <ele>57.02</ele>
        <time>2013-04-14T08:09:40Z</time>
      </trkpt>
      <trkpt lat="43.76101" lon="4.7012">
        <ele>58.65</ele>
        <time>2013-04-14T08:09:59Z</time>
      </trkpt>
      <trkpt lat="43.76106" lon="4.7013">
        <ele>59.08</ele>
        <time>2013-04-14T08:10:06Z</time>
      </trkpt>
      <trkpt lat="43.76126" lon="4.70157">
        <ele>61.14</ele>
        <time>2013-04-14T08:10:32Z</time>
      </trkpt>
      <trkpt lat="43.76146" lon="4.70181">
        <ele>63.08</ele>
        <time>2013-04-14T08:10:59Z</time>
      </trkpt>
      <trkpt lat="43.76167" lon="4.70208">
        <ele>64.75</ele>
        <time>2013-04-14T08:11:25Z</time>
      </trkpt>
      <trkpt lat="43.76181" lon="4.70227">
        <ele>66.32</ele>
        <time>2013-04-14T08:11:45Z</time>
      </trkpt>
      <trkpt lat="43.76182" lon="4.7023">
        <ele>66.49</ele>
        <time>2013-04-14T08:11:47Z</time>
      </trkpt>
      <trkpt lat="43.76193" lon="4.70243">
        <ele>67.36</ele>
        <time>2013-04-14T08:12:02Z</time>
      </trkpt>
      <trkpt lat="43.76197" lon="4.7025">
        <ele>67.08</ele>
        <time>2013-04-14T08:12:08Z</time>
      </trkpt>
      <trkpt lat="43.76207" lon="4.70265">
        <ele>69.21</ele>
        <time>2013-04-14T08:12:24Z</time>
      </trkpt>
      <trkpt lat="43.76222" lon="4.70287">
        <ele>70.84</ele>
        <time>2013-04-14T08:12:47Z</time>
      </trkpt>
      <trkpt lat="43.76236" lon="4.70306">
        <ele>72.24</ele>
        <time>2013-04-14T08:13:05Z</time>
      </trkpt>
      <trkpt lat="43.76239" lon="4.70312">
        <ele>72.76</ele>
        <time>2013-04-14T08:13:11Z</time>
      </trkpt>
      <trkpt lat="43.76246" lon="4.70319">
        <ele>73.82</ele>
        <time>2013-04-14T08:13:20Z</time>
      </trkpt>
      <trkpt lat="43.76259" lon="4.7034">
        <ele>75.38</ele>
        <time>2013-04-14T08:13:39Z</time>
      </trkpt>
      <trkpt lat="43.76274" lon="4.70358">
        <ele>76.23</ele>
        <time>2013-04-14T08:13:57Z</time>
      </trkpt>
      <trkpt lat="43.76285" lon="4.70377">
        <ele>77.14</ele>
        <time>2013-04-14T08:14:13Z</time>
      </trkpt>
      <trkpt lat="43.76293" lon="4.7039">
        <ele>78</ele>
        <time>2013-04-14T08:14:23Z</time>
      </trkpt>
      <trkpt lat="43.76298" lon="4.70395">
        <ele>78.66</ele>
        <time>2013-04-14T08:14:32Z</time>
      </trkpt>
      <trkpt lat="43.76311" lon="4.70405">
        <ele>79.66</ele>
        <time>2013-04-14T08:14:47Z</time>
      </trkpt>
      <trkpt lat="43.76328" lon="4.70423">
        <ele>80.93</ele>
        <time>2013-04-14T08:15:07Z</time>
      </trkpt>
      <trkpt lat="43.76336" lon="4.70438">
        <ele>81.88</ele>
        <time>2013-04-14T08:15:21Z</time>
      </trkpt>
      <trkpt lat="43.76347" lon="4.70456">
        <ele>82.31</ele>
        <time>2013-04-14T08:15:35Z</time>
      </trkpt>
      <trkpt lat="43.7635" lon="4.70463">
        <ele>82.95</ele>
        <time>2013-04-14T08:15:49Z</time>
      </trkpt>
      <trkpt lat="43.76351" lon="4.70462">
        <ele>83.35</ele>
        <time>2013-04-14T08:16:08Z</time>
      </trkpt>
      <trkpt lat="43.76351" lon="4.70462">
        <ele>83.38</ele>
        <time>2013-04-14T08:16:13Z</time>
      </trkpt>
      <trkpt lat="43.76351" lon="4.70462">
        <ele>83.36</ele>
        <time>2013-04-14T08:16:46Z</time>
      </trkpt>
      <trkpt lat="43.7635" lon="4.70462">
        <ele>83.66</ele>
        <time>2013-04-14T08:17:21Z</time>
      </trkpt>
      <trkpt lat="43.76354" lon="4.70464">
        <ele>83.75</ele>
        <time>2013-04-14T08:17:51Z</time>
      </trkpt>
      <trkpt lat="43.76357" lon="4.70477">
        <ele>84.64</ele>
        <time>2013-04-14T08:18:12Z</time>
      </trkpt>
      <trkpt lat="43.76358" lon="4.70479">
        <ele>84.57</ele>
        <time>2013-04-14T08:18:35Z</time>
      </trkpt>
      <trkpt lat="43.76358" lon="4.70479">
        <ele>84.68</ele>
        <time>2013-04-14T08:19:04Z</time>
      </trkpt>
      <trkpt lat="43.76357" lon="4.70482">
        <ele>85.1</ele>
        <time>2013-04-14T08:19:38Z</time>
      </trkpt>
      <trkpt lat="43.76358" lon="4.7048">
        <ele>85.41</ele>
        <time>2013-04-14T08:20:07Z</time>
      </trkpt>
      <trkpt lat="43.76358" lon="4.70479">
        <ele>85.19</ele>
        <time>2013-04-14T08:20:33Z</time>
      </trkpt>
      <trkpt lat="43.76358" lon="4.7048">
        <ele>85.31</ele>
        <time>2013-04-14T08:21:03Z</time>
      </trkpt>
      <trkpt lat="43.76358" lon="4.7048">
        <ele>85.4</ele>
        <time>2013-04-14T08:21:33Z</time>
      </trkpt>
      <trkpt lat="43.76358" lon="4.7048">
        <ele>85.5</ele>
        <time>2013-04-14T08:22:03Z</time>
      </trkpt>
      <trkpt lat="43.76358" lon="4.7048">
        <ele>85.45</ele>
        <time>2013-04-14T08:22:30Z</time>
      </trkpt>
      <trkpt lat="43.76357" lon="4.70479">
        <ele>85.63</ele>
        <time>2013-04-14T08:22:59Z</time>
      </trkpt>
      <trkpt lat="43.76357" lon="4.70477">
        <ele>85.67</ele>
        <time>2013-04-14T08:23:34Z</time>
      </trkpt>
      <trkpt lat="43.76357" lon="4.70478">
        <ele>85.49</ele>
        <time>2013-04-14T08:24:04Z</time>
      </trkpt>
      <trkpt lat="43.76356" lon="4.70477">
        <ele>85.64</ele>
        <time>2013-04-14T08:24:34Z</time>
      </trkpt>
      <trkpt lat="43.76357" lon="4.70476">
        <ele>85.79</ele>
        <time>2013-04-14T08:25:03Z</time>
      </trkpt>
      <trkpt lat="43.76358" lon="4.70477">
        <ele>85.61</ele>
        <time>2013-04-14T08:25:36Z</time>
      </trkpt>
      <trkpt lat="43.76357" lon="4.70476">
        <ele>85.8</ele>
        <time>2013-04-14T08:26:02Z</time>
      </trkpt>
      <trkpt lat="43.76357" lon="4.70479">
        <ele>86</ele>
        <time>2013-04-14T08:26:35Z</time>
      </trkpt>
      <trkpt lat="43.76358" lon="4.70483">
        <ele>85.78</ele>
        <time>2013-04-14T08:27:06Z</time>
      </trkpt>
      <trkpt lat="43.76358" lon="4.70483">
        <ele>85.61</ele>
        <time>2013-04-14T08:27:37Z</time>
      </trkpt>
      <trkpt lat="43.7636" lon="4.70483">
        <ele>86.06</ele>
        <time>2013-04-14T08:28:15Z</time>
      </trkpt>
      <trkpt lat="43.7636" lon="4.70482">
        <ele>86.14</ele>
        <time>2013-04-14T08:28:47Z</time>
      </trkpt>
      <trkpt lat="43.7636" lon="4.70482">
        <ele>86.12</ele>
        <time>2013-04-14T08:29:17Z</time>
      </trkpt>
      <trkpt lat="43.76363" lon="4.70481">
        <ele>86.01</ele>
        <time>2013-04-14T08:29:48Z</time>
      </trkpt>
      <trkpt lat="43.76362" lon="4.70482">
        <ele>85.95</ele>
        <time>2013-04-14T08:30:21Z</time>
      </trkpt>
      <trkpt lat="43.76361" lon="4.70481">
        <ele>85.86</ele>
        <time>2013-04-14T08:30:51Z</time>
      </trkpt>
      <trkpt lat="43.76361" lon="4.7048">
        <ele>86.01</ele>
        <time>2013-04-14T08:31:26Z</time>
      </trkpt>
      <trkpt lat="43.76362" lon="4.70484">
        <ele>85.99</ele>
        <time>2013-04-14T08:31:53Z</time>
      </trkpt>
      <trkpt lat="43.76367" lon="4.7049">
        <ele>86.18</ele>
        <time>2013-04-14T08:32:20Z</time>
      </trkpt>
      <trkpt lat="43.76387" lon="4.70515">
        <ele>87.37</ele>
        <time>2013-04-14T08:32:46Z</time>
      </trkpt>
      <trkpt lat="43.76405" lon="4.70542">
        <ele>88.2</ele>
        <time>2013-04-14T08:33:12Z</time>
      </trkpt>
      <trkpt lat="43.76422" lon="4.70574">
        <ele>89.91</ele>
        <time>2013-04-14T08:33:39Z</time>
      </trkpt>
      <trkpt lat="43.76445" lon="4.70592">
        <ele>91.05</ele>
        <time>2013-04-14T08:34:07Z</time>
      </trkpt>
      <trkpt lat="43.76466" lon="4.70609">
        <ele>93.04</ele>
        <time>2013-04-14T08:34:34Z</time>
      </trkpt>
      <trkpt lat="43.76487" lon="4.70629">
        <ele>95.2</ele>
        <time>2013-04-14T08:35:01Z</time>
      </trkpt>
      <trkpt lat="43.76508" lon="4.70647">
        <ele>97.17</ele>
        <time>2013-04-14T08:35:25Z</time>
      </trkpt>
      <trkpt lat="43.76525" lon="4.70681">
        <ele>98.91</ele>
        <time>2013-04-14T08:35:52Z</time>
      </trkpt>
      <trkpt lat="43.76535" lon="4.70709">
        <ele>100.54</ele>
        <time>2013-04-14T08:36:16Z</time>
      </trkpt>
      <trkpt lat="43.76543" lon="4.70742">
        <ele>101.87</ele>
        <time>2013-04-14T08:36:41Z</time>
      </trkpt>
      <trkpt lat="43.76556" lon="4.70768">
        <ele>102.56</ele>
        <time>2013-04-14T08:37:05Z</time>
      </trkpt>
      <trkpt lat="43.76568" lon="4.70793">
        <ele>103.73</ele>
        <time>2013-04-14T08:37:28Z</time>
      </trkpt>
      <trkpt lat="43.76576" lon="4.70826">
        <ele>104.8</ele>
        <time>2013-04-14T08:37:54Z</time>
      </trkpt>
      <trkpt lat="43.76591" lon="4.70858">
        <ele>106.9</ele>
        <time>2013-04-14T08:38:22Z</time>
      </trkpt>
      <trkpt lat="43.76603" lon="4.70888">
        <ele>108.88</ele>
        <time>2013-04-14T08:38:52Z</time>
      </trkpt>
      <trkpt lat="43.76603" lon="4.70913">
        <ele>109.85</ele>
        <time>2013-04-14T08:39:10Z</time>
      </trkpt>
      <trkpt lat="43.76601" lon="4.70946">
        <ele>111.67</ele>
        <time>2013-04-14T08:39:37Z</time>
      </trkpt>
      <trkpt lat="43.76599" lon="4.70981">
        <ele>112.91</ele>
        <time>2013-04-14T08:40:07Z</time>
      </trkpt>
      <trkpt lat="43.76597" lon="4.71013">
        <ele>114.11</ele>
        <time>2013-04-14T08:40:34Z</time>
      </trkpt>
      <trkpt lat="43.76586" lon="4.71036">
        <ele>115.7</ele>
        <time>2013-04-14T08:41:00Z</time>
      </trkpt>
      <trkpt lat="43.76573" lon="4.71058">
        <ele>117.48</ele>
        <time>2013-04-14T08:41:25Z</time>
      </trkpt>
      <trkpt lat="43.76568" lon="4.71066">
        <ele>118.63</ele>
        <time>2013-04-14T08:41:53Z</time>
      </trkpt>
      <trkpt lat="43.76554" lon="4.71091">
        <ele>120.23</ele>
        <time>2013-04-14T08:42:17Z</time>
      </trkpt>
      <trkpt lat="43.76546" lon="4.71098">
        <ele>121.24</ele>
        <time>2013-04-14T08:42:38Z</time>
      </trkpt>
      <trkpt lat="43.76535" lon="4.71117">
        <ele>123.34</ele>
        <time>2013-04-14T08:43:00Z</time>
      </trkpt>
      <trkpt lat="43.76523" lon="4.71135">
        <ele>125.01</ele>
        <time>2013-04-14T08:43:21Z</time>
      </trkpt>
      <trkpt lat="43.7651" lon="4.71151">
        <ele>126.03</ele>
        <time>2013-04-14T08:43:45Z</time>
      </trkpt>
      <trkpt lat="43.76494" lon="4.71173">
        <ele>127.89</ele>
        <time>2013-04-14T08:44:10Z</time>
      </trkpt>
      <trkpt lat="43.76476" lon="4.71198">
        <ele>129.27</ele>
        <time>2013-04-14T08:44:35Z</time>
      </trkpt>
      <trkpt lat="43.76463" lon="4.71216">
        <ele>130.22</ele>
        <time>2013-04-14T08:44:54Z</time>
      </trkpt>
      <trkpt lat="43.76457" lon="4.71231">
        <ele>131.81</ele>
        <time>2013-04-14T08:45:06Z</time>
      </trkpt>
      <trkpt lat="43.76456" lon="4.71237">
        <ele>131.63</ele>
        <time>2013-04-14T08:45:12Z</time>
      </trkpt>
      <trkpt lat="43.76451" lon="4.71255">
        <ele>132.46</ele>
        <time>2013-04-14T08:45:27Z</time>
      </trkpt>
      <trkpt lat="43.76448" lon="4.71271">
        <ele>132.35</ele>
        <time>2013-04-14T08:45:40Z</time>
      </trkpt>
      <trkpt lat="43.76443" lon="4.71294">
        <ele>132.75</ele>
        <time>2013-04-14T08:45:59Z</time>
      </trkpt>
      <trkpt lat="43.76439" lon="4.71317">
        <ele>133.41</ele>
        <time>2013-04-14T08:46:20Z</time>
      </trkpt>
      <trkpt lat="43.76437" lon="4.71348">
        <ele>134.36</ele>
        <time>2013-04-14T08:46:43Z</time>
      </trkpt>
      <trkpt lat="43.76434" lon="4.71376">
        <ele>135.01</ele>
        <time>2013-04-14T08:47:05Z</time>
      </trkpt>
      <trkpt lat="43.76435" lon="4.7141">
        <ele>136.13</ele>
        <time>2013-04-14T08:47:31Z</time>
      </trkpt>
      <trkpt lat="43.76432" lon="4.7144">
        <ele>137.16</ele>
        <time>2013-04-14T08:47:57Z</time>
      </trkpt>
      <trkpt lat="43.7643" lon="4.71471">
        <ele>139.02</ele>
        <time>2013-04-14T08:48:22Z</time>
      </trkpt>
      <trkpt lat="43.76422" lon="4.71499">
        <ele>140.07</ele>
        <time>2013-04-14T08:48:47Z</time>
      </trkpt>
      <trkpt lat="43.76417" lon="4.71523">
        <ele>141.22</ele>
        <time>2013-04-14T08:49:11Z</time>
      </trkpt>
      <trkpt lat="43.76408" lon="4.7155">
        <ele>142.72</ele>
        <time>2013-04-14T08:49:36Z</time>
      </trkpt>
      <trkpt lat="43.76393" lon="4.71569">
        <ele>144.02</ele>
        <time>2013-04-14T08:50:00Z</time>
      </trkpt>
      <trkpt lat="43.76388" lon="4.71575">
        <ele>144.04</ele>
        <time>2013-04-14T08:50:08Z</time>
      </trkpt>
      <trkpt lat="43.7637" lon="4.71597">
        <ele>145.15</ele>
        <time>2013-04-14T08:50:35Z</time>
      </trkpt>
      <trkpt lat="43.76353" lon="4.71623">
        <ele>146.14</ele>
        <time>2013-04-14T08:51:03Z</time>
      </trkpt>
      <trkpt lat="43.76338" lon="4.71641">
        <ele>147.42</ele>
        <time>2013-04-14T08:51:27Z</time>
      </trkpt>
      <trkpt lat="43.76321" lon="4.7166">
        <ele>148.4</ele>
        <time>2013-04-14T08:51:51Z</time>
      </trkpt>
      <trkpt lat="43.76302" lon="4.71682">
        <ele>149.47</ele>
        <time>2013-04-14T08:52:18Z</time>
      </trkpt>
      <trkpt lat="43.76293" lon="4.71706">
        <ele>150.49</ele>
        <time>2013-04-14T08:52:41Z</time>
      </trkpt>
      <trkpt lat="43.76291" lon="4.71719">
        <ele>151.08</ele>
        <time>2013-04-14T08:52:51Z</time>
      </trkpt>
      <trkpt lat="43.76285" lon="4.71743">
        <ele>151.9</ele>
        <time>2013-04-14T08:53:11Z</time>
      </trkpt>
      <trkpt lat="43.7628" lon="4.71767">
        <ele>151.98</ele>
        <time>2013-04-14T08:53:33Z</time>
      </trkpt>
      <trkpt lat="43.76273" lon="4.71799">
        <ele>154.12</ele>
        <time>2013-04-14T08:53:59Z</time>
      </trkpt>
      <trkpt lat="43.76266" lon="4.71836">
        <ele>155.69</ele>
        <time>2013-04-14T08:54:30Z</time>
      </trkpt>
      <trkpt lat="43.7626" lon="4.71873">
        <ele>157.53</ele>
        <time>2013-04-14T08:54:58Z</time>
      </trkpt>
      <trkpt lat="43.76251" lon="4.71908">
        <ele>158.82</ele>
        <time>2013-04-14T08:55:28Z</time>
      </trkpt>
      <trkpt lat="43.76245" lon="4.71947">
        <ele>159.83</ele>
        <time>2013-04-14T08:55:57Z</time>
      </trkpt>
      <trkpt lat="43.76231" lon="4.71976">
        <ele>161.34</ele>
        <time>2013-04-14T08:56:24Z</time>
      </trkpt>
      <trkpt lat="43.76211" lon="4.71997">
        <ele>163.02</ele>
        <time>2013-04-14T08:56:52Z</time>
      </trkpt>
      <trkpt lat="43.76196" lon="4.7202">
        <ele>165.06</ele>
        <time>2013-04-14T08:57:20Z</time>
      </trkpt>
      <trkpt lat="43.76189" lon="4.72046">
        <ele>167.78</ele>
        <time>2013-04-14T08:57:47Z</time>
      </trkpt>
      <trkpt lat="43.76192" lon="4.7208">
        <ele>170.02</ele>
        <time>2013-04-14T08:58:15Z</time>
      </trkpt>
      <trkpt lat="43.76195" lon="4.72118">
        <ele>171.65</ele>
        <time>2013-04-14T08:58:45Z</time>
      </trkpt>
      <trkpt lat="43.76195" lon="4.72153">
        <ele>173.16</ele>
        <time>2013-04-14T08:59:13Z</time>
      </trkpt>
      <trkpt lat="43.76196" lon="4.72187">
        <ele>175.26</ele>
        <time>2013-04-14T08:59:37Z</time>
      </trkpt>
      <trkpt lat="43.76195" lon="4.7221">
        <ele>175.61</ele>
        <time>2013-04-14T08:59:59Z</time>
      </trkpt>
      <trkpt lat="43.76194" lon="4.72218">
        <ele>176.37</ele>
        <time>2013-04-14T09:00:22Z</time>
      </trkpt>
      <trkpt lat="43.76193" lon="4.72218">
        <ele>176.21</ele>
        <time>2013-04-14T09:00:53Z</time>
      </trkpt>
      <trkpt lat="43.76194" lon="4.72223">
        <ele>176.43</ele>
        <time>2013-04-14T09:01:21Z</time>
      </trkpt>
      <trkpt lat="43.76195" lon="4.72226">
        <ele>176.25</ele>
        <time>2013-04-14T09:01:54Z</time>
      </trkpt>
      <trkpt lat="43.76195" lon="4.72225">
        <ele>176.42</ele>
        <time>2013-04-14T09:02:26Z</time>
      </trkpt>
      <trkpt lat="43.76195" lon="4.72225">
        <ele>176.58</ele>
        <time>2013-04-14T09:03:01Z</time>
      </trkpt>
      <trkpt lat="43.76192" lon="4.72225">
        <ele>176.34</ele>
        <time>2013-04-14T09:03:33Z</time>
      </trkpt>
      <trkpt lat="43.76193" lon="4.72223">
        <ele>176.37</ele>
        <time>2013-04-14T09:04:05Z</time>
      </trkpt>
      <trkpt lat="43.76193" lon="4.72224">
        <ele>176.62</ele>
        <time>2013-04-14T09:04:36Z</time>
      </trkpt>
      <trkpt lat="43.76192" lon="4.72224">
        <ele>176.61</ele>
        <time>2013-04-14T09:05:07Z</time>
      </trkpt>
      <trkpt lat="43.76191" lon="4.72224">
        <ele>176.56</ele>
        <time>2013-04-14T09:05:38Z</time>
      </trkpt>
      <trkpt lat="43.76191" lon="4.72224">
        <ele>176.45</ele>
        <time>2013-04-14T09:06:04Z</time>
      </trkpt>
      <trkpt lat="43.76191" lon="4.72223">
        <ele>176.36</ele>
        <time>2013-04-14T09:06:31Z</time>
      </trkpt>
      <trkpt lat="43.76192" lon="4.72222">
        <ele>176.52</ele>
        <time>2013-04-14T09:06:59Z</time>
      </trkpt>
      <trkpt lat="43.76193" lon="4.72223">
        <ele>176.72</ele>
        <time>2013-04-14T09:07:25Z</time>
      </trkpt>
      <trkpt lat="43.76194" lon="4.72223">
        <ele>176.8</ele>
        <time>2013-04-14T09:07:54Z</time>
      </trkpt>
      <trkpt lat="43.76195" lon="4.72222">
        <ele>176.84</ele>
        <time>2013-04-14T09:08:26Z</time>
      </trkpt>
      <trkpt lat="43.76195" lon="4.72223">
        <ele>176.71</ele>
        <time>2013-04-14T09:08:59Z</time>
      </trkpt>
      <trkpt lat="43.76194" lon="4.72222">
        <ele>176.72</ele>
        <time>2013-04-14T09:09:36Z</time>
      </trkpt>
      <trkpt lat="43.76193" lon="4.72224">
        <ele>176.43</ele>
        <time>2013-04-14T09:10:11Z</time>
      </trkpt>
      <trkpt lat="43.76194" lon="4.72222">
        <ele>176.51</ele>
        <time>2013-04-14T09:10:43Z</time>
      </trkpt>
      <trkpt lat="43.76196" lon="4.72237">
        <ele>177.01</ele>
        <time>2013-04-14T09:11:06Z</time>
      </trkpt>
      <trkpt lat="43.76196" lon="4.72266">
        <ele>178.37</ele>
        <time>2013-04-14T09:11:31Z</time>
      </trkpt>
      <trkpt lat="43.76196" lon="4.72272">
        <ele>178.73</ele>
        <time>2013-04-14T09:11:35Z</time>
      </trkpt>
      <trkpt lat="43.76195" lon="4.72298">
        <ele>179.07</ele>
        <time>2013-04-14T09:11:51Z</time>
      </trkpt>
      <trkpt lat="43.76195" lon="4.72321">
        <ele>180.65</ele>
        <time>2013-04-14T09:12:06Z</time>
      </trkpt>
      <trkpt lat="43.76192" lon="4.72342">
        <ele>181.39</ele>
        <time>2013-04-14T09:12:23Z</time>
      </trkpt>
      <trkpt lat="43.76194" lon="4.72364">
        <ele>181.05</ele>
        <time>2013-04-14T09:12:41Z</time>
      </trkpt>
      <trkpt lat="43.76191" lon="4.72398">
        <ele>182.65</ele>
        <time>2013-04-14T09:13:07Z</time>
      </trkpt>
      <trkpt lat="43.76188" lon="4.72422">
        <ele>183.96</ele>
        <time>2013-04-14T09:13:24Z</time>
      </trkpt>
      <trkpt lat="43.7618" lon="4.72453">
        <ele>184.72</ele>
        <time>2013-04-14T09:13:50Z</time>
      </trkpt>
      <trkpt lat="43.76178" lon="4.72473">
        <ele>185.26</ele>
        <time>2013-04-14T09:14:05Z</time>
      </trkpt>
      <trkpt lat="43.7618" lon="4.72481">
        <ele>185.18</ele>
        <time>2013-04-14T09:14:12Z</time>
      </trkpt>
      <trkpt lat="43.76181" lon="4.72483">
        <ele>185.26</ele>
        <time>2013-04-14T09:14:14Z</time>
      </trkpt>
      <trkpt lat="43.76187" lon="4.725">
        <ele>185.15</ele>
        <time>2013-04-14T09:14:29Z</time>
      </trkpt>
      <trkpt lat="43.76191" lon="4.72533">
        <ele>184.37</ele>
        <time>2013-04-14T09:14:52Z</time>
      </trkpt>
      <trkpt lat="43.76188" lon="4.7256">
        <ele>184.07</ele>
        <time>2013-04-14T09:15:13Z</time>
      </trkpt>
      <trkpt lat="43.76178" lon="4.7259">
        <ele>182.88</ele>
        <time>2013-04-14T09:15:35Z</time>
      </trkpt>
      <trkpt lat="43.76176" lon="4.72597">
        <ele>182.53</ele>
        <time>2013-04-14T09:15:40Z</time>
      </trkpt>
      <trkpt lat="43.76162" lon="4.72627">
        <ele>181.84</ele>
        <time>2013-04-14T09:16:04Z</time>
      </trkpt>
      <trkpt lat="43.76152" lon="4.72638">
        <ele>180.62</ele>
        <time>2013-04-14T09:16:16Z</time>
      </trkpt>
      <trkpt lat="43.76134" lon="4.72649">
        <ele>178.53</ele>
        <time>2013-04-14T09:16:34Z</time>
      </trkpt>
      <trkpt lat="43.76107" lon="4.7267">
        <ele>177.58</ele>
        <time>2013-04-14T09:17:02Z</time>
      </trkpt>
      <trkpt lat="43.76105" lon="4.72678">
        <ele>177.2</ele>
        <time>2013-04-14T09:17:25Z</time>
      </trkpt>
      <trkpt lat="43.76104" lon="4.72678">
        <ele>177.17</ele>
        <time>2013-04-14T09:17:55Z</time>
      </trkpt>
      <trkpt lat="43.76104" lon="4.72678">
        <ele>177.05</ele>
        <time>2013-04-14T09:18:22Z</time>
      </trkpt>
      <trkpt lat="43.76104" lon="4.72679">
        <ele>176.97</ele>
        <time>2013-04-14T09:18:51Z</time>
      </trkpt>
      <trkpt lat="43.761" lon="4.72682">
        <ele>176.84</ele>
        <time>2013-04-14T09:19:19Z</time>
      </trkpt>
      <trkpt lat="43.76084" lon="4.72695">
        <ele>175.06</ele>
        <time>2013-04-14T09:19:44Z</time>
      </trkpt>
      <trkpt lat="43.76061" lon="4.72718">
        <ele>172.78</ele>
        <time>2013-04-14T09:20:11Z</time>
      </trkpt>
      <trkpt lat="43.76055" lon="4.72725">
        <ele>172.77</ele>
        <time>2013-04-14T09:20:18Z</time>
      </trkpt>
      <trkpt lat="43.76031" lon="4.72746">
        <ele>171.92</ele>
        <time>2013-04-14T09:20:44Z</time>
      </trkpt>
      <trkpt lat="43.76009" lon="4.72769">
        <ele>171.45</ele>
        <time>2013-04-14T09:21:11Z</time>
      </trkpt>
      <trkpt lat="43.7599" lon="4.72787">
        <ele>170.82</ele>
        <time>2013-04-14T09:21:33Z</time>
      </trkpt>
      <trkpt lat="43.75975" lon="4.7279">
        <ele>170.12</ele>
        <time>2013-04-14T09:21:50Z</time>
      </trkpt>
      <trkpt lat="43.75951" lon="4.72801">
        <ele>168.58</ele>
        <time>2013-04-14T09:22:19Z</time>
      </trkpt>
      <trkpt lat="43.75929" lon="4.72815">
        <ele>166.02</ele>
        <time>2013-04-14T09:22:42Z</time>
      </trkpt>
      <trkpt lat="43.75908" lon="4.72825">
        <ele>164.35</ele>
        <time>2013-04-14T09:23:04Z</time>
      </trkpt>
      <trkpt lat="43.75886" lon="4.72838">
        <ele>162.88</ele>
        <time>2013-04-14T09:23:29Z</time>
      </trkpt>
      <trkpt lat="43.7586" lon="4.72857">
        <ele>160.63</ele>
        <time>2013-04-14T09:23:54Z</time>
      </trkpt>
      <trkpt lat="43.75845" lon="4.72872">
        <ele>159.04</ele>
        <time>2013-04-14T09:24:11Z</time>
      </trkpt>
      <trkpt lat="43.75831" lon="4.72899">
        <ele>157.18</ele>
        <time>2013-04-14T09:24:35Z</time>
      </trkpt>
      <trkpt lat="43.75815" lon="4.72931">
        <ele>155.89</ele>
        <time>2013-04-14T09:24:56Z</time>
      </trkpt>
      <trkpt lat="43.75806" lon="4.72967">
        <ele>153.81</ele>
        <time>2013-04-14T09:25:21Z</time>
      </trkpt>
      <trkpt lat="43.758" lon="4.72989">
        <ele>152.79</ele>
        <time>2013-04-14T09:25:38Z</time>
      </trkpt>
      <trkpt lat="43.75789" lon="4.73018">
        <ele>151.21</ele>
        <time>2013-04-14T09:25:59Z</time>
      </trkpt>
      <trkpt lat="43.7578" lon="4.73044">
        <ele>149.84</ele>
        <time>2013-04-14T09:26:17Z</time>
      </trkpt>
      <trkpt lat="43.75779" lon="4.73049">
        <ele>149.73</ele>
        <time>2013-04-14T09:26:20Z</time>
      </trkpt>
      <trkpt lat="43.75766" lon="4.73068">
        <ele>148.92</ele>
        <time>2013-04-14T09:26:34Z</time>
      </trkpt>
      <trkpt lat="43.75764" lon="4.73069">
        <ele>148.77</ele>
        <time>2013-04-14T09:26:36Z</time>
      </trkpt>
      <trkpt lat="43.75756" lon="4.73079">
        <ele>148.08</ele>
        <time>2013-04-14T09:26:47Z</time>
      </trkpt>
      <trkpt lat="43.75736" lon="4.73097">
        <ele>144.87</ele>
        <time>2013-04-14T09:27:12Z</time>
      </trkpt>
      <trkpt lat="43.75746" lon="4.73112">
        <ele>141.85</ele>
        <time>2013-04-14T09:27:30Z</time>
      </trkpt>
      <trkpt lat="43.75748" lon="4.73137">
        <ele>138.63</ele>
        <time>2013-04-14T09:27:48Z</time>
      </trkpt>
      <trkpt lat="43.75749" lon="4.73156">
        <ele>137.25</ele>
        <time>2013-04-14T09:28:01Z</time>
      </trkpt>
      <trkpt lat="43.75755" lon="4.73184">
        <ele>136.16</ele>
        <time>2013-04-14T09:28:25Z</time>
      </trkpt>
      <trkpt lat="43.75762" lon="4.73187">
        <ele>136.08</ele>
        <time>2013-04-14T09:28:34Z</time>
      </trkpt>
      <trkpt lat="43.75775" lon="4.73181">
        <ele>134.97</ele>
        <time>2013-04-14T09:28:48Z</time>
      </trkpt>
      <trkpt lat="43.75793" lon="4.73192">
        <ele>133.28</ele>
        <time>2013-04-14T09:29:03Z</time>
      </trkpt>
      <trkpt lat="43.75796" lon="4.73199">
        <ele>132.93</ele>
        <time>2013-04-14T09:29:08Z</time>
      </trkpt>
      <trkpt lat="43.75788" lon="4.73222">
        <ele>131.36</ele>
        <time>2013-04-14T09:29:25Z</time>
      </trkpt>
      <trkpt lat="43.75783" lon="4.73242">
        <ele>130.28</ele>
        <time>2013-04-14T09:29:39Z</time>
      </trkpt>
      <trkpt lat="43.75785" lon="4.73266">
        <ele>128.33</ele>
        <time>2013-04-14T09:29:57Z</time>
      </trkpt>
      <trkpt lat="43.75787" lon="4.73274">
        <ele>127.1</ele>
        <time>2013-04-14T09:30:04Z</time>
      </trkpt>
      <trkpt lat="43.75794" lon="4.73302">
        <ele>126.13</ele>
        <time>2013-04-14T09:30:26Z</time>
      </trkpt>
      <trkpt lat="43.75796" lon="4.73307">
        <ele>125.96</ele>
        <time>2013-04-14T09:30:30Z</time>
      </trkpt>
      <trkpt lat="43.75808" lon="4.73328">
        <ele>124.64</ele>
        <time>2013-04-14T09:30:49Z</time>
      </trkpt>
      <trkpt lat="43.75814" lon="4.73339">
        <ele>124.03</ele>
        <time>2013-04-14T09:31:02Z</time>
      </trkpt>
      <trkpt lat="43.75815" lon="4.73341">
        <ele>124.34</ele>
        <time>2013-04-14T09:31:24Z</time>
      </trkpt>
      <trkpt lat="43.75814" lon="4.7334">
        <ele>124.48</ele>
        <time>2013-04-14T09:31:49Z</time>
      </trkpt>
      <trkpt lat="43.75814" lon="4.73339">
        <ele>124.54</ele>
        <time>2013-04-14T09:32:17Z</time>
      </trkpt>
      <trkpt lat="43.75815" lon="4.73339">
        <ele>124.97</ele>
        <time>2013-04-14T09:32:49Z</time>
      </trkpt>
      <trkpt lat="43.75815" lon="4.7334">
        <ele>124.92</ele>
        <time>2013-04-14T09:33:19Z</time>
      </trkpt>
      <trkpt lat="43.7582" lon="4.73338">
        <ele>125.44</ele>
        <time>2013-04-14T09:33:44Z</time>
      </trkpt>
      <trkpt lat="43.7582" lon="4.73337">
        <ele>126.06</ele>
        <time>2013-04-14T09:34:02Z</time>
      </trkpt>
      <trkpt lat="43.75818" lon="4.73332">
        <ele>54.28</ele>
        <time>2013-04-14T09:35:05Z</time>
      </trkpt>
      <trkpt lat="43.7582" lon="4.73329">
        <ele>98.61</ele>
        <time>2013-04-14T09:35:08Z</time>
      </trkpt>
      <trkpt lat="43.75821" lon="4.73329">
        <ele>109.69</ele>
        <time>2013-04-14T09:35:09Z</time>
      </trkpt>
      <trkpt lat="43.75821" lon="4.73328">
        <ele>119.33</ele>
        <time>2013-04-14T09:35:10Z</time>
      </trkpt>
      <trkpt lat="43.75822" lon="4.73328">
        <ele>126.86</ele>
        <time>2013-04-14T09:35:12Z</time>
      </trkpt>
      <trkpt lat="43.75823" lon="4.73326">
        <ele>129.06</ele>
        <time>2013-04-14T09:35:15Z</time>
      </trkpt>
      <trkpt lat="43.75842" lon="4.73308">
        <ele>128.62</ele>
        <time>2013-04-14T09:35:44Z</time>
      </trkpt>
      <trkpt lat="43.75853" lon="4.73304">
        <ele>127.96</ele>
        <time>2013-04-14T09:36:03Z</time>
      </trkpt>
      <trkpt lat="43.75877" lon="4.73305">
        <ele>126.99</ele>
        <time>2013-04-14T09:36:28Z</time>
      </trkpt>
      <trkpt lat="43.759" lon="4.73294">
        <ele>126.15</ele>
        <time>2013-04-14T09:36:51Z</time>
      </trkpt>
      <trkpt lat="43.75916" lon="4.73283">
        <ele>125.08</ele>
        <time>2013-04-14T09:37:09Z</time>
      </trkpt>
      <trkpt lat="43.75938" lon="4.73262">
        <ele>123.47</ele>
        <time>2013-04-14T09:37:34Z</time>
      </trkpt>
      <trkpt lat="43.75962" lon="4.73247">
        <ele>121.09</ele>
        <time>2013-04-14T09:37:58Z</time>
      </trkpt>
      <trkpt lat="43.75965" lon="4.73247">
        <ele>120.93</ele>
        <time>2013-04-14T09:38:00Z</time>
      </trkpt>
      <trkpt lat="43.75989" lon="4.7325">
        <ele>119.4</ele>
        <time>2013-04-14T09:38:27Z</time>
      </trkpt>
      <trkpt lat="43.76008" lon="4.73265">
        <ele>117.68</ele>
        <time>2013-04-14T09:38:50Z</time>
      </trkpt>
      <trkpt lat="43.76021" lon="4.73274">
        <ele>116.39</ele>
        <time>2013-04-14T09:39:05Z</time>
      </trkpt>
      <trkpt lat="43.76027" lon="4.73262">
        <ele>116.57</ele>
        <time>2013-04-14T09:39:16Z</time>
      </trkpt>
      <trkpt lat="43.76039" lon="4.73246">
        <ele>116.04</ele>
        <time>2013-04-14T09:39:32Z</time>
      </trkpt>
      <trkpt lat="43.76051" lon="4.73256">
        <ele>114.26</ele>
        <time>2013-04-14T09:39:49Z</time>
      </trkpt>
      <trkpt lat="43.76065" lon="4.73268">
        <ele>112.38</ele>
        <time>2013-04-14T09:40:05Z</time>
      </trkpt>
      <trkpt lat="43.76074" lon="4.73269">
        <ele>110.72</ele>
        <time>2013-04-14T09:40:15Z</time>
      </trkpt>
      <trkpt lat="43.76094" lon="4.73263">
        <ele>107.47</ele>
        <time>2013-04-14T09:40:33Z</time>
      </trkpt>
      <trkpt lat="43.76114" lon="4.73259">
        <ele>104.82</ele>
        <time>2013-04-14T09:40:53Z</time>
      </trkpt>
      <trkpt lat="43.76129" lon="4.73261">
        <ele>103.06</ele>
        <time>2013-04-14T09:41:08Z</time>
      </trkpt>
      <trkpt lat="43.7614" lon="4.73269">
        <ele>101.67</ele>
        <time>2013-04-14T09:41:23Z</time>
      </trkpt>
      <trkpt lat="43.76161" lon="4.7328">
        <ele>99.85</ele>
        <time>2013-04-14T09:41:46Z</time>
      </trkpt>
      <trkpt lat="43.76183" lon="4.73277">
        <ele>97.8</ele>
        <time>2013-04-14T09:42:08Z</time>
      </trkpt>
      <trkpt lat="43.76204" lon="4.73278">
        <ele>96.08</ele>
        <time>2013-04-14T09:42:30Z</time>
      </trkpt>
      <trkpt lat="43.76234" lon="4.7329">
        <ele>93.87</ele>
        <time>2013-04-14T09:42:59Z</time>
      </trkpt>
      <trkpt lat="43.76239" lon="4.73292">
        <ele>94.13</ele>
        <time>2013-04-14T09:43:03Z</time>
      </trkpt>
      <trkpt lat="43.76252" lon="4.73294">
        <ele>94.14</ele>
        <time>2013-04-14T09:43:15Z</time>
      </trkpt>
      <trkpt lat="43.76267" lon="4.73302">
        <ele>93.69</ele>
        <time>2013-04-14T09:43:28Z</time>
      </trkpt>
      <trkpt lat="43.76278" lon="4.73318">
        <ele>92.75</ele>
        <time>2013-04-14T09:43:42Z</time>
      </trkpt>
      <trkpt lat="43.76291" lon="4.73328">
        <ele>91.41</ele>
        <time>2013-04-14T09:43:56Z</time>
      </trkpt>
      <trkpt lat="43.76307" lon="4.73347">
        <ele>90.3</ele>
        <time>2013-04-14T09:44:14Z</time>
      </trkpt>
      <trkpt lat="43.76308" lon="4.73349">
        <ele>90.19</ele>
        <time>2013-04-14T09:44:16Z</time>
      </trkpt>
      <trkpt lat="43.76311" lon="4.73354">
        <ele>89.75</ele>
        <time>2013-04-14T09:44:19Z</time>
      </trkpt>
      <trkpt lat="43.76317" lon="4.73361">
        <ele>89.38</ele>
        <time>2013-04-14T09:44:28Z</time>
      </trkpt>
      <trkpt lat="43.76333" lon="4.73374">
        <ele>89.02</ele>
        <time>2013-04-14T09:44:44Z</time>
      </trkpt>
      <trkpt lat="43.76343" lon="4.73382">
        <ele>88.59</ele>
        <time>2013-04-14T09:44:54Z</time>
      </trkpt>
      <trkpt lat="43.76351" lon="4.73387">
        <ele>88.23</ele>
        <time>2013-04-14T09:45:02Z</time>
      </trkpt>
      <trkpt lat="43.76359" lon="4.73393">
        <ele>87.89</ele>
        <time>2013-04-14T09:45:09Z</time>
      </trkpt>
      <trkpt lat="43.76363" lon="4.73398">
        <ele>87.71</ele>
        <time>2013-04-14T09:45:14Z</time>
      </trkpt>
      <trkpt lat="43.76376" lon="4.73415">
        <ele>86.39</ele>
        <time>2013-04-14T09:45:29Z</time>
      </trkpt>
      <trkpt lat="43.76381" lon="4.73421">
        <ele>86.04</ele>
        <time>2013-04-14T09:45:36Z</time>
      </trkpt>
      <trkpt lat="43.76393" lon="4.73429">
        <ele>85.64</ele>
        <time>2013-04-14T09:45:48Z</time>
      </trkpt>
      <trkpt lat="43.76413" lon="4.73423">
        <ele>84.8</ele>
        <time>2013-04-14T09:46:10Z</time>
      </trkpt>
      <trkpt lat="43.76445" lon="4.73409">
        <ele>84.01</ele>
        <time>2013-04-14T09:46:30Z</time>
      </trkpt>
      <trkpt lat="43.76462" lon="4.73427">
        <ele>83.71</ele>
        <time>2013-04-14T09:46:48Z</time>
      </trkpt>
      <trkpt lat="43.76471" lon="4.73423">
        <ele>82.81</ele>
        <time>2013-04-14T09:46:56Z</time>
      </trkpt>
      <trkpt lat="43.76487" lon="4.73424">
        <ele>81.58</ele>
        <time>2013-04-14T09:47:13Z</time>
      </trkpt>
      <trkpt lat="43.76506" lon="4.73421">
        <ele>80.44</ele>
        <time>2013-04-14T09:47:30Z</time>
      </trkpt>
      <trkpt lat="43.76526" lon="4.73418">
        <ele>78.26</ele>
        <time>2013-04-14T09:47:46Z</time>
      </trkpt>
      <trkpt lat="43.76537" lon="4.7342">
        <ele>77.7</ele>
        <time>2013-04-14T09:47:57Z</time>
      </trkpt>
      <trkpt lat="43.76556" lon="4.73422">
        <ele>77.16</ele>
        <time>2013-04-14T09:48:13Z</time>
      </trkpt>
      <trkpt lat="43.76577" lon="4.73415">
        <ele>76.1</ele>
        <time>2013-04-14T09:48:33Z</time>
      </trkpt>
      <trkpt lat="43.76589" lon="4.73398">
        <ele>74.87</ele>
        <time>2013-04-14T09:48:49Z</time>
      </trkpt>
      <trkpt lat="43.76601" lon="4.73381">
        <ele>74.1</ele>
        <time>2013-04-14T09:49:06Z</time>
      </trkpt>
      <trkpt lat="43.76611" lon="4.73374">
        <ele>73.68</ele>
        <time>2013-04-14T09:49:14Z</time>
      </trkpt>
      <trkpt lat="43.76615" lon="4.73365">
        <ele>73.12</ele>
        <time>2013-04-14T09:49:20Z</time>
      </trkpt>
      <trkpt lat="43.76623" lon="4.73345">
        <ele>72.22</ele>
        <time>2013-04-14T09:49:35Z</time>
      </trkpt>
      <trkpt lat="43.76629" lon="4.73313">
        <ele>70.88</ele>
        <time>2013-04-14T09:49:55Z</time>
      </trkpt>
      <trkpt lat="43.76631" lon="4.7331">
        <ele>70.75</ele>
        <time>2013-04-14T09:49:58Z</time>
      </trkpt>
      <trkpt lat="43.76643" lon="4.73294">
        <ele>69.92</ele>
        <time>2013-04-14T09:50:13Z</time>
      </trkpt>
      <trkpt lat="43.76657" lon="4.73276">
        <ele>68.94</ele>
        <time>2013-04-14T09:50:29Z</time>
      </trkpt>
      <trkpt lat="43.76664" lon="4.73264">
        <ele>68.52</ele>
        <time>2013-04-14T09:50:43Z</time>
      </trkpt>
      <trkpt lat="43.76677" lon="4.73251">
        <ele>68.19</ele>
        <time>2013-04-14T09:51:04Z</time>
      </trkpt>
      <trkpt lat="43.76685" lon="4.73246">
        <ele>67.82</ele>
        <time>2013-04-14T09:51:29Z</time>
      </trkpt>
      <trkpt lat="43.76705" lon="4.7324">
        <ele>67.08</ele>
        <time>2013-04-14T09:51:49Z</time>
      </trkpt>
      <trkpt lat="43.76737" lon="4.73236">
        <ele>65.78</ele>
        <time>2013-04-14T09:52:16Z</time>
      </trkpt>
      <trkpt lat="43.76765" lon="4.73236">
        <ele>64.36</ele>
        <time>2013-04-14T09:52:42Z</time>
      </trkpt>
      <trkpt lat="43.7679" lon="4.73229">
        <ele>63.34</ele>
        <time>2013-04-14T09:53:07Z</time>
      </trkpt>
      <trkpt lat="43.76819" lon="4.73223">
        <ele>62.92</ele>
        <time>2013-04-14T09:53:32Z</time>
      </trkpt>
      <trkpt lat="43.76837" lon="4.73215">
        <ele>61.95</ele>
        <time>2013-04-14T09:53:54Z</time>
      </trkpt>
      <trkpt lat="43.76857" lon="4.73199">
        <ele>60.48</ele>
        <time>2013-04-14T09:54:18Z</time>
      </trkpt>
      <trkpt lat="43.76879" lon="4.73215">
        <ele>59.01</ele>
        <time>2013-04-14T09:54:42Z</time>
      </trkpt>
      <trkpt lat="43.76885" lon="4.73235">
        <ele>58.62</ele>
        <time>2013-04-14T09:55:05Z</time>
      </trkpt>
      <trkpt lat="43.76883" lon="4.73239">
        <ele>58.2</ele>
        <time>2013-04-14T09:55:40Z</time>
      </trkpt>
      <trkpt lat="43.76889" lon="4.73243">
        <ele>58.09</ele>
        <time>2013-04-14T09:56:07Z</time>
      </trkpt>
      <trkpt lat="43.76889" lon="4.73243">
        <ele>58.4</ele>
        <time>2013-04-14T09:56:20Z</time>
      </trkpt>
      <trkpt lat="43.76895" lon="4.73305">
        <ele>61.23</ele>
        <time>2013-04-14T10:02:05Z</time>
      </trkpt>
      <trkpt lat="43.76887" lon="4.7331">
        <ele>67.76</ele>
        <time>2013-04-14T10:02:25Z</time>
      </trkpt>
      <trkpt lat="43.76869" lon="4.73315">
        <ele>67.83</ele>
        <time>2013-04-14T10:02:49Z</time>
      </trkpt>
      <trkpt lat="43.7686" lon="4.73319">
        <ele>67.89</ele>
        <time>2013-04-14T10:02:58Z</time>
      </trkpt>
      <trkpt lat="43.76837" lon="4.7333">
        <ele>68.16</ele>
        <time>2013-04-14T10:03:23Z</time>
      </trkpt>
      <trkpt lat="43.7681" lon="4.73348">
        <ele>68.6</ele>
        <time>2013-04-14T10:03:49Z</time>
      </trkpt>
      <trkpt lat="43.76782" lon="4.7337">
        <ele>68.86</ele>
        <time>2013-04-14T10:04:18Z</time>
      </trkpt>
      <trkpt lat="43.76759" lon="4.73387">
        <ele>69.33</ele>
        <time>2013-04-14T10:04:45Z</time>
      </trkpt>
      <trkpt lat="43.76733" lon="4.73405">
        <ele>69.96</ele>
        <time>2013-04-14T10:05:11Z</time>
      </trkpt>
      <trkpt lat="43.76717" lon="4.73414">
        <ele>70.87</ele>
        <time>2013-04-14T10:05:34Z</time>
      </trkpt>
      <trkpt lat="43.76696" lon="4.73435">
        <ele>71.06</ele>
        <time>2013-04-14T10:05:59Z</time>
      </trkpt>
      <trkpt lat="43.76672" lon="4.73463">
        <ele>71.53</ele>
        <time>2013-04-14T10:06:22Z</time>
      </trkpt>
      <trkpt lat="43.7665" lon="4.73487">
        <ele>70.42</ele>
        <time>2013-04-14T10:06:47Z</time>
      </trkpt>
      <trkpt lat="43.76636" lon="4.73508">
        <ele>70.12</ele>
        <time>2013-04-14T10:07:11Z</time>
      </trkpt>
      <trkpt lat="43.7662" lon="4.73528">
        <ele>70.31</ele>
        <time>2013-04-14T10:07:37Z</time>
      </trkpt>
      <trkpt lat="43.76598" lon="4.73558">
        <ele>70.23</ele>
        <time>2013-04-14T10:08:03Z</time>
      </trkpt>
      <trkpt lat="43.7658" lon="4.73579">
        <ele>70.63</ele>
        <time>2013-04-14T10:08:28Z</time>
      </trkpt>
      <trkpt lat="43.7656" lon="4.73607">
        <ele>71.86</ele>
        <time>2013-04-14T10:08:51Z</time>
      </trkpt>
      <trkpt lat="43.76543" lon="4.73628">
        <ele>72.1</ele>
        <time>2013-04-14T10:09:15Z</time>
      </trkpt>
      <trkpt lat="43.76529" lon="4.73644">
        <ele>72.7</ele>
        <time>2013-04-14T10:09:36Z</time>
      </trkpt>
      <trkpt lat="43.7652" lon="4.73666">
        <ele>72.07</ele>
        <time>2013-04-14T10:09:59Z</time>
      </trkpt>
      <trkpt lat="43.76506" lon="4.73691">
        <ele>72.19</ele>
        <time>2013-04-14T10:10:22Z</time>
      </trkpt>
      <trkpt lat="43.76501" lon="4.73696">
        <ele>73.51</ele>
        <time>2013-04-14T10:10:30Z</time>
      </trkpt>
      <trkpt lat="43.76497" lon="4.73698">
        <ele>73.73</ele>
        <time>2013-04-14T10:10:33Z</time>
      </trkpt>
      <trkpt lat="43.76487" lon="4.73709">
        <ele>74.23</ele>
        <time>2013-04-14T10:10:43Z</time>
      </trkpt>
      <trkpt lat="43.76477" lon="4.73717">
        <ele>74.18</ele>
        <time>2013-04-14T10:10:56Z</time>
      </trkpt>
      <trkpt lat="43.76461" lon="4.73728">
        <ele>73.99</ele>
        <time>2013-04-14T10:11:16Z</time>
      </trkpt>
      <trkpt lat="43.76453" lon="4.73736">
        <ele>74.7</ele>
        <time>2013-04-14T10:11:27Z</time>
      </trkpt>
      <trkpt lat="43.76449" lon="4.73743">
        <ele>75.14</ele>
        <time>2013-04-14T10:11:34Z</time>
      </trkpt>
      <trkpt lat="43.76445" lon="4.73748">
        <ele>75.53</ele>
        <time>2013-04-14T10:11:40Z</time>
      </trkpt>
      <trkpt lat="43.7644" lon="4.73768">
        <ele>75.67</ele>
        <time>2013-04-14T10:11:54Z</time>
      </trkpt>
      <trkpt lat="43.76437" lon="4.73781">
        <ele>76.38</ele>
        <time>2013-04-14T10:12:08Z</time>
      </trkpt>
      <trkpt lat="43.76433" lon="4.738">
        <ele>77.77</ele>
        <time>2013-04-14T10:12:23Z</time>
      </trkpt>
      <trkpt lat="43.76429" lon="4.73828">
        <ele>78.76</ele>
        <time>2013-04-14T10:12:47Z</time>
      </trkpt>
      <trkpt lat="43.76426" lon="4.73855">
        <ele>80.38</ele>
        <time>2013-04-14T10:13:11Z</time>
      </trkpt>
      <trkpt lat="43.76429" lon="4.73882">
        <ele>81.97</ele>
        <time>2013-04-14T10:13:33Z</time>
      </trkpt>
      <trkpt lat="43.76435" lon="4.73902">
        <ele>82.4</ele>
        <time>2013-04-14T10:13:52Z</time>
      </trkpt>
      <trkpt lat="43.76439" lon="4.73917">
        <ele>82.7</ele>
        <time>2013-04-14T10:14:07Z</time>
      </trkpt>
      <trkpt lat="43.76445" lon="4.73931">
        <ele>83.19</ele>
        <time>2013-04-14T10:14:25Z</time>
      </trkpt>
      <trkpt lat="43.76448" lon="4.73938">
        <ele>82.81</ele>
        <time>2013-04-14T10:14:49Z</time>
      </trkpt>
      <trkpt lat="43.76453" lon="4.73961">
        <ele>83.14</ele>
        <time>2013-04-14T10:15:12Z</time>
      </trkpt>
      <trkpt lat="43.76454" lon="4.73963">
        <ele>83.17</ele>
        <time>2013-04-14T10:15:14Z</time>
      </trkpt>
      <trkpt lat="43.76459" lon="4.73997">
        <ele>82.88</ele>
        <time>2013-04-14T10:15:41Z</time>
      </trkpt>
      <trkpt lat="43.76471" lon="4.74057">
        <ele>83.59</ele>
        <time>2013-04-14T10:16:24Z</time>
      </trkpt>
      <trkpt lat="43.76482" lon="4.74088">
        <ele>83.58</ele>
        <time>2013-04-14T10:16:50Z</time>
      </trkpt>
      <trkpt lat="43.76487" lon="4.74098">
        <ele>84.08</ele>
        <time>2013-04-14T10:16:59Z</time>
      </trkpt>
      <trkpt lat="43.76495" lon="4.74121">
        <ele>83.88</ele>
        <time>2013-04-14T10:17:17Z</time>
      </trkpt>
      <trkpt lat="43.765" lon="4.74136">
        <ele>84.25</ele>
        <time>2013-04-14T10:17:28Z</time>
      </trkpt>
      <trkpt lat="43.76506" lon="4.74173">
        <ele>84.95</ele>
        <time>2013-04-14T10:17:55Z</time>
      </trkpt>
      <trkpt lat="43.76515" lon="4.7421">
        <ele>87.22</ele>
        <time>2013-04-14T10:18:21Z</time>
      </trkpt>
      <trkpt lat="43.76517" lon="4.74248">
        <ele>87.08</ele>
        <time>2013-04-14T10:18:46Z</time>
      </trkpt>
      <trkpt lat="43.76509" lon="4.74291">
        <ele>86.81</ele>
        <time>2013-04-14T10:19:13Z</time>
      </trkpt>
      <trkpt lat="43.76498" lon="4.74327">
        <ele>88.17</ele>
        <time>2013-04-14T10:19:37Z</time>
      </trkpt>
      <trkpt lat="43.76484" lon="4.74357">
        <ele>88.68</ele>
        <time>2013-04-14T10:20:00Z</time>
      </trkpt>
      <trkpt lat="43.76484" lon="4.74361">
        <ele>88.87</ele>
        <time>2013-04-14T10:20:03Z</time>
      </trkpt>
      <trkpt lat="43.7649" lon="4.74396">
        <ele>89.79</ele>
        <time>2013-04-14T10:20:25Z</time>
      </trkpt>
      <trkpt lat="43.76496" lon="4.74434">
        <ele>90.38</ele>
        <time>2013-04-14T10:20:50Z</time>
      </trkpt>
      <trkpt lat="43.76505" lon="4.74474">
        <ele>90.14</ele>
        <time>2013-04-14T10:21:16Z</time>
      </trkpt>
      <trkpt lat="43.76518" lon="4.74509">
        <ele>91.68</ele>
        <time>2013-04-14T10:21:40Z</time>
      </trkpt>
      <trkpt lat="43.76536" lon="4.74544">
        <ele>94.69</ele>
        <time>2013-04-14T10:22:10Z</time>
      </trkpt>
      <trkpt lat="43.76545" lon="4.74572">
        <ele>97.76</ele>
        <time>2013-04-14T10:22:33Z</time>
      </trkpt>
      <trkpt lat="43.7656" lon="4.74594">
        <ele>100.84</ele>
        <time>2013-04-14T10:22:52Z</time>
      </trkpt>
      <trkpt lat="43.76568" lon="4.74615">
        <ele>102.25</ele>
        <time>2013-04-14T10:23:12Z</time>
      </trkpt>
      <trkpt lat="43.76577" lon="4.74636">
        <ele>101.78</ele>
        <time>2013-04-14T10:23:31Z</time>
      </trkpt>
      <trkpt lat="43.76581" lon="4.7466">
        <ele>101.4</ele>
        <time>2013-04-14T10:23:51Z</time>
      </trkpt>
      <trkpt lat="43.76582" lon="4.74691">
        <ele>101.45</ele>
        <time>2013-04-14T10:24:18Z</time>
      </trkpt>
      <trkpt lat="43.76572" lon="4.74727">
        <ele>100.89</ele>
        <time>2013-04-14T10:24:41Z</time>
      </trkpt>
      <trkpt lat="43.76569" lon="4.74753">
        <ele>102.2</ele>
        <time>2013-04-14T10:25:05Z</time>
      </trkpt>
      <trkpt lat="43.76559" lon="4.74776">
        <ele>103.23</ele>
        <time>2013-04-14T10:25:33Z</time>
      </trkpt>
      <trkpt lat="43.76548" lon="4.74788">
        <ele>104.21</ele>
        <time>2013-04-14T10:26:02Z</time>
      </trkpt>
      <trkpt lat="43.76543" lon="4.74795">
        <ele>104.21</ele>
        <time>2013-04-14T10:26:31Z</time>
      </trkpt>
      <trkpt lat="43.76542" lon="4.74792">
        <ele>103.91</ele>
        <time>2013-04-14T10:27:03Z</time>
      </trkpt>
      <trkpt lat="43.76542" lon="4.7479">
        <ele>104.29</ele>
        <time>2013-04-14T10:27:35Z</time>
      </trkpt>
      <trkpt lat="43.76539" lon="4.74788">
        <ele>104.81</ele>
        <time>2013-04-14T10:28:04Z</time>
      </trkpt>
      <trkpt lat="43.76538" lon="4.74788">
        <ele>105.39</ele>
        <time>2013-04-14T10:28:36Z</time>
      </trkpt>
      <trkpt lat="43.76543" lon="4.7479">
        <ele>104.97</ele>
        <time>2013-04-14T10:29:13Z</time>
      </trkpt>
      <trkpt lat="43.76542" lon="4.74794">
        <ele>104.81</ele>
        <time>2013-04-14T10:29:47Z</time>
      </trkpt>
      <trkpt lat="43.7654" lon="4.74794">
        <ele>104.41</ele>
        <time>2013-04-14T10:30:23Z</time>
      </trkpt>
      <trkpt lat="43.76539" lon="4.74794">
        <ele>105.32</ele>
        <time>2013-04-14T10:30:50Z</time>
      </trkpt>
      <trkpt lat="43.76536" lon="4.74795">
        <ele>105.49</ele>
        <time>2013-04-14T10:31:01Z</time>
      </trkpt>
      <trkpt lat="43.76541" lon="4.74779">
        <ele>70.05</ele>
        <time>2013-04-14T11:37:02Z</time>
      </trkpt>
      <trkpt lat="43.7654" lon="4.74785">
        <ele>70.05</ele>
        <time>2013-04-14T11:37:03Z</time>
      </trkpt>
      <trkpt lat="43.76539" lon="4.7479">
        <ele>74.94</ele>
        <time>2013-04-14T11:37:05Z</time>
      </trkpt>
      <trkpt lat="43.76537" lon="4.74795">
        <ele>76.9</ele>
        <time>2013-04-14T11:37:08Z</time>
      </trkpt>
      <trkpt lat="43.76543" lon="4.74799">
        <ele>77.34</ele>
        <time>2013-04-14T11:37:32Z</time>
      </trkpt>
      <trkpt lat="43.76536" lon="4.74799">
        <ele>77.53</ele>
        <time>2013-04-14T11:37:47Z</time>
      </trkpt>
      <trkpt lat="43.7652" lon="4.74814">
        <ele>80.22</ele>
        <time>2013-04-14T11:38:12Z</time>
      </trkpt>
      <trkpt lat="43.76515" lon="4.74813">
        <ele>83.27</ele>
        <time>2013-04-14T11:38:29Z</time>
      </trkpt>
      <trkpt lat="43.76506" lon="4.74813">
        <ele>83.14</ele>
        <time>2013-04-14T11:38:49Z</time>
      </trkpt>
      <trkpt lat="43.76506" lon="4.74815">
        <ele>83.61</ele>
        <time>2013-04-14T11:39:15Z</time>
      </trkpt>
      <trkpt lat="43.76505" lon="4.74821">
        <ele>83.96</ele>
        <time>2013-04-14T11:39:40Z</time>
      </trkpt>
      <trkpt lat="43.76504" lon="4.74826">
        <ele>84.13</ele>
        <time>2013-04-14T11:40:06Z</time>
      </trkpt>
      <trkpt lat="43.76495" lon="4.74829">
        <ele>84.69</ele>
        <time>2013-04-14T11:40:25Z</time>
      </trkpt>
      <trkpt lat="43.76477" lon="4.74839">
        <ele>85.63</ele>
        <time>2013-04-14T11:40:48Z</time>
      </trkpt>
      <trkpt lat="43.76465" lon="4.74853">
        <ele>88.73</ele>
        <time>2013-04-14T11:41:08Z</time>
      </trkpt>
      <trkpt lat="43.7645" lon="4.74873">
        <ele>90.21</ele>
        <time>2013-04-14T11:41:31Z</time>
      </trkpt>
      <trkpt lat="43.76443" lon="4.74895">
        <ele>90.98</ele>
        <time>2013-04-14T11:41:56Z</time>
      </trkpt>
      <trkpt lat="43.76445" lon="4.74905">
        <ele>91.99</ele>
        <time>2013-04-14T11:42:18Z</time>
      </trkpt>
      <trkpt lat="43.76446" lon="4.74907">
        <ele>92.49</ele>
        <time>2013-04-14T11:42:45Z</time>
      </trkpt>
      <trkpt lat="43.76446" lon="4.74909">
        <ele>92.61</ele>
        <time>2013-04-14T11:43:10Z</time>
      </trkpt>
      <trkpt lat="43.76453" lon="4.74918">
        <ele>92.04</ele>
        <time>2013-04-14T11:43:29Z</time>
      </trkpt>
      <trkpt lat="43.76471" lon="4.74938">
        <ele>90.9</ele>
        <time>2013-04-14T11:43:54Z</time>
      </trkpt>
      <trkpt lat="43.76477" lon="4.74943">
        <ele>90.72</ele>
        <time>2013-04-14T11:44:01Z</time>
      </trkpt>
      <trkpt lat="43.76499" lon="4.74968">
        <ele>90.74</ele>
        <time>2013-04-14T11:44:30Z</time>
      </trkpt>
      <trkpt lat="43.76497" lon="4.74985">
        <ele>91.31</ele>
        <time>2013-04-14T11:44:50Z</time>
      </trkpt>
      <trkpt lat="43.76494" lon="4.74984">
        <ele>91.38</ele>
        <time>2013-04-14T11:45:10Z</time>
      </trkpt>
      <trkpt lat="43.7648" lon="4.74975">
        <ele>92.44</ele>
        <time>2013-04-14T11:45:35Z</time>
      </trkpt>
      <trkpt lat="43.76454" lon="4.74967">
        <ele>93</ele>
        <time>2013-04-14T11:46:04Z</time>
      </trkpt>
      <trkpt lat="43.76431" lon="4.74946">
        <ele>95.58</ele>
        <time>2013-04-14T11:46:30Z</time>
      </trkpt>
      <trkpt lat="43.76419" lon="4.74961">
        <ele>98.49</ele>
        <time>2013-04-14T11:46:55Z</time>
      </trkpt>
      <trkpt lat="43.76436" lon="4.74983">
        <ele>100.73</ele>
        <time>2013-04-14T11:47:24Z</time>
      </trkpt>
      <trkpt lat="43.76468" lon="4.74998">
        <ele>101.37</ele>
        <time>2013-04-14T11:47:49Z</time>
      </trkpt>
      <trkpt lat="43.76487" lon="4.75022">
        <ele>104.17</ele>
        <time>2013-04-14T11:48:14Z</time>
      </trkpt>
      <trkpt lat="43.76494" lon="4.75059">
        <ele>106.07</ele>
        <time>2013-04-14T11:48:41Z</time>
      </trkpt>
      <trkpt lat="43.765" lon="4.75084">
        <ele>107.56</ele>
        <time>2013-04-14T11:49:01Z</time>
      </trkpt>
      <trkpt lat="43.76481" lon="4.75109">
        <ele>109.69</ele>
        <time>2013-04-14T11:49:27Z</time>
      </trkpt>
      <trkpt lat="43.76463" lon="4.75109">
        <ele>111.87</ele>
        <time>2013-04-14T11:49:49Z</time>
      </trkpt>
      <trkpt lat="43.76459" lon="4.7511">
        <ele>112.19</ele>
        <time>2013-04-14T11:49:53Z</time>
      </trkpt>
      <trkpt lat="43.76432" lon="4.75118">
        <ele>114.27</ele>
        <time>2013-04-14T11:50:19Z</time>
      </trkpt>
      <trkpt lat="43.76406" lon="4.75131">
        <ele>116.11</ele>
        <time>2013-04-14T11:50:45Z</time>
      </trkpt>
      <trkpt lat="43.76377" lon="4.75143">
        <ele>117.83</ele>
        <time>2013-04-14T11:51:14Z</time>
      </trkpt>
      <trkpt lat="43.76357" lon="4.75157">
        <ele>120.24</ele>
        <time>2013-04-14T11:51:38Z</time>
      </trkpt>
      <trkpt lat="43.76335" lon="4.75165">
        <ele>122.61</ele>
        <time>2013-04-14T11:52:02Z</time>
      </trkpt>
      <trkpt lat="43.76327" lon="4.75155">
        <ele>123.96</ele>
        <time>2013-04-14T11:52:13Z</time>
      </trkpt>
      <trkpt lat="43.76303" lon="4.7514">
        <ele>125.39</ele>
        <time>2013-04-14T11:52:37Z</time>
      </trkpt>
      <trkpt lat="43.76292" lon="4.75149">
        <ele>126.15</ele>
        <time>2013-04-14T11:52:52Z</time>
      </trkpt>
      <trkpt lat="43.76297" lon="4.75179">
        <ele>128.04</ele>
        <time>2013-04-14T11:53:15Z</time>
      </trkpt>
      <trkpt lat="43.76297" lon="4.75182">
        <ele>128.15</ele>
        <time>2013-04-14T11:53:17Z</time>
      </trkpt>
      <trkpt lat="43.76293" lon="4.75194">
        <ele>128.74</ele>
        <time>2013-04-14T11:53:26Z</time>
      </trkpt>
      <trkpt lat="43.76269" lon="4.75198">
        <ele>131.26</ele>
        <time>2013-04-14T11:53:51Z</time>
      </trkpt>
      <trkpt lat="43.76241" lon="4.75202">
        <ele>134</ele>
        <time>2013-04-14T11:54:18Z</time>
      </trkpt>
      <trkpt lat="43.76211" lon="4.75202">
        <ele>136.44</ele>
        <time>2013-04-14T11:54:45Z</time>
      </trkpt>
      <trkpt lat="43.76189" lon="4.75198">
        <ele>138.15</ele>
        <time>2013-04-14T11:55:09Z</time>
      </trkpt>
      <trkpt lat="43.76161" lon="4.75193">
        <ele>139.95</ele>
        <time>2013-04-14T11:55:35Z</time>
      </trkpt>
      <trkpt lat="43.76156" lon="4.75187">
        <ele>140.33</ele>
        <time>2013-04-14T11:55:42Z</time>
      </trkpt>
      <trkpt lat="43.76144" lon="4.75153">
        <ele>141.66</ele>
        <time>2013-04-14T11:56:08Z</time>
      </trkpt>
      <trkpt lat="43.76126" lon="4.75155">
        <ele>143.89</ele>
        <time>2013-04-14T11:56:29Z</time>
      </trkpt>
      <trkpt lat="43.7612" lon="4.75189">
        <ele>146.55</ele>
        <time>2013-04-14T11:56:54Z</time>
      </trkpt>
      <trkpt lat="43.76121" lon="4.75233">
        <ele>147.62</ele>
        <time>2013-04-14T11:57:21Z</time>
      </trkpt>
      <trkpt lat="43.76117" lon="4.75263">
        <ele>149.15</ele>
        <time>2013-04-14T11:57:43Z</time>
      </trkpt>
      <trkpt lat="43.76097" lon="4.753">
        <ele>149.31</ele>
        <time>2013-04-14T11:58:13Z</time>
      </trkpt>
      <trkpt lat="43.76088" lon="4.7532">
        <ele>149.24</ele>
        <time>2013-04-14T11:58:28Z</time>
      </trkpt>
      <trkpt lat="43.76101" lon="4.75331">
        <ele>149.1</ele>
        <time>2013-04-14T11:58:46Z</time>
      </trkpt>
      <trkpt lat="43.76126" lon="4.75321">
        <ele>149.04</ele>
        <time>2013-04-14T11:59:10Z</time>
      </trkpt>
      <trkpt lat="43.76156" lon="4.75309">
        <ele>148.53</ele>
        <time>2013-04-14T11:59:35Z</time>
      </trkpt>
      <trkpt lat="43.76174" lon="4.75321">
        <ele>148.77</ele>
        <time>2013-04-14T11:59:57Z</time>
      </trkpt>
      <trkpt lat="43.76177" lon="4.75332">
        <ele>148.65</ele>
        <time>2013-04-14T12:00:05Z</time>
      </trkpt>
      <trkpt lat="43.76181" lon="4.75368">
        <ele>148.94</ele>
        <time>2013-04-14T12:00:25Z</time>
      </trkpt>
      <trkpt lat="43.76185" lon="4.75391">
        <ele>149.1</ele>
        <time>2013-04-14T12:00:40Z</time>
      </trkpt>
      <trkpt lat="43.76187" lon="4.75394">
        <ele>149.01</ele>
        <time>2013-04-14T12:00:43Z</time>
      </trkpt>
      <trkpt lat="43.76194" lon="4.75399">
        <ele>148.96</ele>
        <time>2013-04-14T12:00:50Z</time>
      </trkpt>
      <trkpt lat="43.76209" lon="4.75385">
        <ele>148.69</ele>
        <time>2013-04-14T12:01:06Z</time>
      </trkpt>
      <trkpt lat="43.76224" lon="4.75371">
        <ele>148.38</ele>
        <time>2013-04-14T12:01:20Z</time>
      </trkpt>
      <trkpt lat="43.76237" lon="4.75354">
        <ele>148.59</ele>
        <time>2013-04-14T12:01:35Z</time>
      </trkpt>
      <trkpt lat="43.76252" lon="4.75337">
        <ele>149.09</ele>
        <time>2013-04-14T12:01:52Z</time>
      </trkpt>
      <trkpt lat="43.76268" lon="4.75335">
        <ele>148.68</ele>
        <time>2013-04-14T12:02:08Z</time>
      </trkpt>
      <trkpt lat="43.76287" lon="4.75343">
        <ele>149.02</ele>
        <time>2013-04-14T12:02:24Z</time>
      </trkpt>
      <trkpt lat="43.76305" lon="4.75354">
        <ele>149.35</ele>
        <time>2013-04-14T12:02:41Z</time>
      </trkpt>
      <trkpt lat="43.76319" lon="4.75375">
        <ele>148.98</ele>
        <time>2013-04-14T12:02:59Z</time>
      </trkpt>
      <trkpt lat="43.76318" lon="4.75395">
        <ele>148.84</ele>
        <time>2013-04-14T12:03:13Z</time>
      </trkpt>
      <trkpt lat="43.76311" lon="4.75438">
        <ele>148.73</ele>
        <time>2013-04-14T12:03:40Z</time>
      </trkpt>
      <trkpt lat="43.76302" lon="4.75478">
        <ele>149.54</ele>
        <time>2013-04-14T12:04:05Z</time>
      </trkpt>
      <trkpt lat="43.76282" lon="4.75495">
        <ele>149.92</ele>
        <time>2013-04-14T12:04:25Z</time>
      </trkpt>
      <trkpt lat="43.76268" lon="4.75504">
        <ele>150.3</ele>
        <time>2013-04-14T12:04:38Z</time>
      </trkpt>
      <trkpt lat="43.7626" lon="4.75513">
        <ele>150.44</ele>
        <time>2013-04-14T12:04:46Z</time>
      </trkpt>
      <trkpt lat="43.76253" lon="4.75522">
        <ele>150.76</ele>
        <time>2013-04-14T12:04:53Z</time>
      </trkpt>
      <trkpt lat="43.7624" lon="4.75535">
        <ele>151.19</ele>
        <time>2013-04-14T12:05:06Z</time>
      </trkpt>
      <trkpt lat="43.76223" lon="4.75545">
        <ele>151.75</ele>
        <time>2013-04-14T12:05:21Z</time>
      </trkpt>
      <trkpt lat="43.76209" lon="4.75558">
        <ele>152.06</ele>
        <time>2013-04-14T12:05:36Z</time>
      </trkpt>
      <trkpt lat="43.76197" lon="4.75582">
        <ele>153.69</ele>
        <time>2013-04-14T12:05:52Z</time>
      </trkpt>
      <trkpt lat="43.76191" lon="4.75606">
        <ele>153.98</ele>
        <time>2013-04-14T12:06:06Z</time>
      </trkpt>
      <trkpt lat="43.7619" lon="4.75611">
        <ele>153.91</ele>
        <time>2013-04-14T12:06:09Z</time>
      </trkpt>
      <trkpt lat="43.76186" lon="4.7562">
        <ele>153.81</ele>
        <time>2013-04-14T12:06:15Z</time>
      </trkpt>
      <trkpt lat="43.76174" lon="4.75639">
        <ele>153.79</ele>
        <time>2013-04-14T12:06:30Z</time>
      </trkpt>
      <trkpt lat="43.76171" lon="4.75642">
        <ele>153.73</ele>
        <time>2013-04-14T12:06:33Z</time>
      </trkpt>
      <trkpt lat="43.76153" lon="4.75651">
        <ele>154.18</ele>
        <time>2013-04-14T12:06:48Z</time>
      </trkpt>
      <trkpt lat="43.76138" lon="4.75657">
        <ele>154.31</ele>
        <time>2013-04-14T12:07:01Z</time>
      </trkpt>
      <trkpt lat="43.76138" lon="4.75658">
        <ele>154.23</ele>
        <time>2013-04-14T12:07:02Z</time>
      </trkpt>
      <trkpt lat="43.76142" lon="4.75667">
        <ele>154.21</ele>
        <time>2013-04-14T12:07:08Z</time>
      </trkpt>
      <trkpt lat="43.76143" lon="4.75669">
        <ele>154.13</ele>
        <time>2013-04-14T12:07:10Z</time>
      </trkpt>
      <trkpt lat="43.76145" lon="4.75671">
        <ele>154.04</ele>
        <time>2013-04-14T12:07:12Z</time>
      </trkpt>
      <trkpt lat="43.76166" lon="4.75679">
        <ele>153.27</ele>
        <time>2013-04-14T12:07:28Z</time>
      </trkpt>
      <trkpt lat="43.7617" lon="4.75682">
        <ele>153.16</ele>
        <time>2013-04-14T12:07:31Z</time>
      </trkpt>
      <trkpt lat="43.76175" lon="4.7569">
        <ele>153.07</ele>
        <time>2013-04-14T12:07:37Z</time>
      </trkpt>
      <trkpt lat="43.76179" lon="4.75698">
        <ele>152.97</ele>
        <time>2013-04-14T12:07:42Z</time>
      </trkpt>
      <trkpt lat="43.76186" lon="4.75705">
        <ele>152.78</ele>
        <time>2013-04-14T12:07:51Z</time>
      </trkpt>
      <trkpt lat="43.76196" lon="4.7569">
        <ele>152.58</ele>
        <time>2013-04-14T12:08:03Z</time>
      </trkpt>
      <trkpt lat="43.76197" lon="4.75685">
        <ele>152.15</ele>
        <time>2013-04-14T12:08:06Z</time>
      </trkpt>
      <trkpt lat="43.76203" lon="4.75678">
        <ele>151.28</ele>
        <time>2013-04-14T12:08:14Z</time>
      </trkpt>
      <trkpt lat="43.76217" lon="4.75672">
        <ele>151.47</ele>
        <time>2013-04-14T12:08:26Z</time>
      </trkpt>
      <trkpt lat="43.76219" lon="4.75672">
        <ele>152.13</ele>
        <time>2013-04-14T12:08:28Z</time>
      </trkpt>
      <trkpt lat="43.76236" lon="4.7566">
        <ele>151.89</ele>
        <time>2013-04-14T12:08:42Z</time>
      </trkpt>
      <trkpt lat="43.76254" lon="4.75653">
        <ele>151.28</ele>
        <time>2013-04-14T12:08:59Z</time>
      </trkpt>
      <trkpt lat="43.76273" lon="4.75648">
        <ele>151.4</ele>
        <time>2013-04-14T12:09:14Z</time>
      </trkpt>
      <trkpt lat="43.76282" lon="4.75663">
        <ele>151.9</ele>
        <time>2013-04-14T12:09:35Z</time>
      </trkpt>
      <trkpt lat="43.76283" lon="4.75692">
        <ele>151.24</ele>
        <time>2013-04-14T12:09:59Z</time>
      </trkpt>
      <trkpt lat="43.76283" lon="4.75699">
        <ele>151.55</ele>
        <time>2013-04-14T12:10:03Z</time>
      </trkpt>
      <trkpt lat="43.7629" lon="4.75728">
        <ele>151.89</ele>
        <time>2013-04-14T12:10:24Z</time>
      </trkpt>
      <trkpt lat="43.7629" lon="4.75765">
        <ele>151.74</ele>
        <time>2013-04-14T12:10:47Z</time>
      </trkpt>
      <trkpt lat="43.76288" lon="4.75779">
        <ele>152.25</ele>
        <time>2013-04-14T12:11:11Z</time>
      </trkpt>
      <trkpt lat="43.76288" lon="4.7578">
        <ele>152.01</ele>
        <time>2013-04-14T12:11:38Z</time>
      </trkpt>
      <trkpt lat="43.76288" lon="4.75781">
        <ele>152.36</ele>
        <time>2013-04-14T12:12:08Z</time>
      </trkpt>
      <trkpt lat="43.76289" lon="4.7578">
        <ele>151.97</ele>
        <time>2013-04-14T12:12:36Z</time>
      </trkpt>
      <trkpt lat="43.76287" lon="4.75784">
        <ele>152.28</ele>
        <time>2013-04-14T12:13:07Z</time>
      </trkpt>
      <trkpt lat="43.76288" lon="4.75783">
        <ele>152.23</ele>
        <time>2013-04-14T12:13:24Z</time>
      </trkpt>
      <trkpt lat="43.76301" lon="4.75752">
        <ele>95.64</ele>
        <time>2013-04-14T12:19:12Z</time>
      </trkpt>
      <trkpt lat="43.76293" lon="4.75775">
        <ele>158.86</ele>
        <time>2013-04-14T12:19:15Z</time>
      </trkpt>
      <trkpt lat="43.76292" lon="4.75775">
        <ele>162.38</ele>
        <time>2013-04-14T12:19:17Z</time>
      </trkpt>
      <trkpt lat="43.76291" lon="4.75775">
        <ele>166.49</ele>
        <time>2013-04-14T12:19:19Z</time>
      </trkpt>
      <trkpt lat="43.76291" lon="4.75787">
        <ele>168.91</ele>
        <time>2013-04-14T12:19:36Z</time>
      </trkpt>
      <trkpt lat="43.76301" lon="4.75792">
        <ele>167.85</ele>
        <time>2013-04-14T12:19:45Z</time>
      </trkpt>
      <trkpt lat="43.76321" lon="4.75803">
        <ele>167.99</ele>
        <time>2013-04-14T12:20:03Z</time>
      </trkpt>
      <trkpt lat="43.76332" lon="4.75823">
        <ele>168.49</ele>
        <time>2013-04-14T12:20:20Z</time>
      </trkpt>
      <trkpt lat="43.76334" lon="4.75832">
        <ele>168.76</ele>
        <time>2013-04-14T12:20:26Z</time>
      </trkpt>
      <trkpt lat="43.76318" lon="4.75861">
        <ele>169.54</ele>
        <time>2013-04-14T12:20:51Z</time>
      </trkpt>
      <trkpt lat="43.76312" lon="4.75883">
        <ele>169.31</ele>
        <time>2013-04-14T12:21:15Z</time>
      </trkpt>
      <trkpt lat="43.76317" lon="4.75901">
        <ele>168.84</ele>
        <time>2013-04-14T12:21:29Z</time>
      </trkpt>
      <trkpt lat="43.7632" lon="4.75917">
        <ele>168.35</ele>
        <time>2013-04-14T12:21:36Z</time>
      </trkpt>
      <trkpt lat="43.76322" lon="4.75922">
        <ele>168.35</ele>
        <time>2013-04-14T12:21:39Z</time>
      </trkpt>
      <trkpt lat="43.76329" lon="4.7594">
        <ele>168.77</ele>
        <time>2013-04-14T12:21:51Z</time>
      </trkpt>
      <trkpt lat="43.76329" lon="4.75965">
        <ele>169.3</ele>
        <time>2013-04-14T12:22:06Z</time>
      </trkpt>
      <trkpt lat="43.76335" lon="4.75989">
        <ele>170.25</ele>
        <time>2013-04-14T12:22:22Z</time>
      </trkpt>
      <trkpt lat="43.76348" lon="4.76007">
        <ele>171.95</ele>
        <time>2013-04-14T12:22:42Z</time>
      </trkpt>
      <trkpt lat="43.76369" lon="4.7603">
        <ele>172.72</ele>
        <time>2013-04-14T12:23:08Z</time>
      </trkpt>
      <trkpt lat="43.76371" lon="4.76061">
        <ele>175.08</ele>
        <time>2013-04-14T12:23:29Z</time>
      </trkpt>
      <trkpt lat="43.76362" lon="4.76074">
        <ele>176.92</ele>
        <time>2013-04-14T12:23:49Z</time>
      </trkpt>
      <trkpt lat="43.7634" lon="4.76073">
        <ele>179.66</ele>
        <time>2013-04-14T12:24:14Z</time>
      </trkpt>
      <trkpt lat="43.76321" lon="4.7606">
        <ele>181.57</ele>
        <time>2013-04-14T12:24:36Z</time>
      </trkpt>
      <trkpt lat="43.76295" lon="4.76063">
        <ele>183.98</ele>
        <time>2013-04-14T12:24:58Z</time>
      </trkpt>
      <trkpt lat="43.76294" lon="4.76064">
        <ele>184.03</ele>
        <time>2013-04-14T12:24:59Z</time>
      </trkpt>
      <trkpt lat="43.76282" lon="4.76084">
        <ele>184.94</ele>
        <time>2013-04-14T12:25:13Z</time>
      </trkpt>
      <trkpt lat="43.76277" lon="4.7609">
        <ele>185.09</ele>
        <time>2013-04-14T12:25:20Z</time>
      </trkpt>
      <trkpt lat="43.76264" lon="4.76097">
        <ele>187</ele>
        <time>2013-04-14T12:25:33Z</time>
      </trkpt>
      <trkpt lat="43.76244" lon="4.76109">
        <ele>189.1</ele>
        <time>2013-04-14T12:25:53Z</time>
      </trkpt>
      <trkpt lat="43.76217" lon="4.76109">
        <ele>191.12</ele>
        <time>2013-04-14T12:26:17Z</time>
      </trkpt>
      <trkpt lat="43.76193" lon="4.76116">
        <ele>193.08</ele>
        <time>2013-04-14T12:26:38Z</time>
      </trkpt>
      <trkpt lat="43.76171" lon="4.76134">
        <ele>195.23</ele>
        <time>2013-04-14T12:27:00Z</time>
      </trkpt>
      <trkpt lat="43.76153" lon="4.76155">
        <ele>195.45</ele>
        <time>2013-04-14T12:27:21Z</time>
      </trkpt>
      <trkpt lat="43.7615" lon="4.7616">
        <ele>195.71</ele>
        <time>2013-04-14T12:27:25Z</time>
      </trkpt>
      <trkpt lat="43.76138" lon="4.76206">
        <ele>198.21</ele>
        <time>2013-04-14T12:27:55Z</time>
      </trkpt>
      <trkpt lat="43.76128" lon="4.76235">
        <ele>201.29</ele>
        <time>2013-04-14T12:28:17Z</time>
      </trkpt>
      <trkpt lat="43.7612" lon="4.7626">
        <ele>203.41</ele>
        <time>2013-04-14T12:28:36Z</time>
      </trkpt>
      <trkpt lat="43.76115" lon="4.76278">
        <ele>204.32</ele>
        <time>2013-04-14T12:28:51Z</time>
      </trkpt>
      <trkpt lat="43.76114" lon="4.76278">
        <ele>204.96</ele>
        <time>2013-04-14T12:29:07Z</time>
      </trkpt>
      <trkpt lat="43.76115" lon="4.7628">
        <ele>204.35</ele>
        <time>2013-04-14T12:29:30Z</time>
      </trkpt>
      <trkpt lat="43.76114" lon="4.7628">
        <ele>204.39</ele>
        <time>2013-04-14T12:29:58Z</time>
      </trkpt>
      <trkpt lat="43.76115" lon="4.7628">
        <ele>204.78</ele>
        <time>2013-04-14T12:30:28Z</time>
      </trkpt>
      <trkpt lat="43.76113" lon="4.7628">
        <ele>205.14</ele>
        <time>2013-04-14T12:31:00Z</time>
      </trkpt>
      <trkpt lat="43.7611" lon="4.7628">
        <ele>205.31</ele>
        <time>2013-04-14T12:31:33Z</time>
      </trkpt>
      <trkpt lat="43.7611" lon="4.76279">
        <ele>205.73</ele>
        <time>2013-04-14T12:32:04Z</time>
      </trkpt>
      <trkpt lat="43.76111" lon="4.76281">
        <ele>205.72</ele>
        <time>2013-04-14T12:32:31Z</time>
      </trkpt>
      <trkpt lat="43.7611" lon="4.76277">
        <ele>205.84</ele>
        <time>2013-04-14T12:34:31Z</time>
      </trkpt>
      <trkpt lat="43.76109" lon="4.76279">
        <ele>205.87</ele>
        <time>2013-04-14T12:35:04Z</time>
      </trkpt>
      <trkpt lat="43.76112" lon="4.76276">
        <ele>206.55</ele>
        <time>2013-04-14T12:35:32Z</time>
      </trkpt>
      <trkpt lat="43.76113" lon="4.76276">
        <ele>206.33</ele>
        <time>2013-04-14T12:35:35Z</time>
      </trkpt>
      <trkpt lat="43.76121" lon="4.76298">
        <ele>177.54</ele>
        <time>2013-04-14T12:42:31Z</time>
      </trkpt>
      <trkpt lat="43.76121" lon="4.76294">
        <ele>177.54</ele>
        <time>2013-04-14T12:42:33Z</time>
      </trkpt>
      <trkpt lat="43.76117" lon="4.76291">
        <ele>205.42</ele>
        <time>2013-04-14T12:42:35Z</time>
      </trkpt>
      <trkpt lat="43.76119" lon="4.76292">
        <ele>210.12</ele>
        <time>2013-04-14T12:42:36Z</time>
      </trkpt>
      <trkpt lat="43.76116" lon="4.7629">
        <ele>213.21</ele>
        <time>2013-04-14T12:42:38Z</time>
      </trkpt>
      <trkpt lat="43.76118" lon="4.76286">
        <ele>213.82</ele>
        <time>2013-04-14T12:42:39Z</time>
      </trkpt>
      <trkpt lat="43.76114" lon="4.76274">
        <ele>213.69</ele>
        <time>2013-04-14T12:42:49Z</time>
      </trkpt>
      <trkpt lat="43.76104" lon="4.7627">
        <ele>213.45</ele>
        <time>2013-04-14T12:42:59Z</time>
      </trkpt>
      <trkpt lat="43.76098" lon="4.76265">
        <ele>213.64</ele>
        <time>2013-04-14T12:43:04Z</time>
      </trkpt>
      <trkpt lat="43.76082" lon="4.7625">
        <ele>213.11</ele>
        <time>2013-04-14T12:43:18Z</time>
      </trkpt>
      <trkpt lat="43.76077" lon="4.76234">
        <ele>216.14</ele>
        <time>2013-04-14T12:43:34Z</time>
      </trkpt>
      <trkpt lat="43.76077" lon="4.76223">
        <ele>217.2</ele>
        <time>2013-04-14T12:43:42Z</time>
      </trkpt>
      <trkpt lat="43.7608" lon="4.76198">
        <ele>219.65</ele>
        <time>2013-04-14T12:44:05Z</time>
      </trkpt>
      <trkpt lat="43.7608" lon="4.76183">
        <ele>220.03</ele>
        <time>2013-04-14T12:44:31Z</time>
      </trkpt>
      <trkpt lat="43.76081" lon="4.76177">
        <ele>219.47</ele>
        <time>2013-04-14T12:44:35Z</time>
      </trkpt>
      <trkpt lat="43.76086" lon="4.76155">
        <ele>217.4</ele>
        <time>2013-04-14T12:44:49Z</time>
      </trkpt>
      <trkpt lat="43.76092" lon="4.76143">
        <ele>216.43</ele>
        <time>2013-04-14T12:44:57Z</time>
      </trkpt>
      <trkpt lat="43.76094" lon="4.76131">
        <ele>215.18</ele>
        <time>2013-04-14T12:45:02Z</time>
      </trkpt>
      <trkpt lat="43.76102" lon="4.76109">
        <ele>213.84</ele>
        <time>2013-04-14T12:45:15Z</time>
      </trkpt>
      <trkpt lat="43.76106" lon="4.76099">
        <ele>213.48</ele>
        <time>2013-04-14T12:45:21Z</time>
      </trkpt>
      <trkpt lat="43.76106" lon="4.76094">
        <ele>213.47</ele>
        <time>2013-04-14T12:45:24Z</time>
      </trkpt>
      <trkpt lat="43.7611" lon="4.76086">
        <ele>212.67</ele>
        <time>2013-04-14T12:45:29Z</time>
      </trkpt>
      <trkpt lat="43.76112" lon="4.7608">
        <ele>212.41</ele>
        <time>2013-04-14T12:45:32Z</time>
      </trkpt>
      <trkpt lat="43.76121" lon="4.76058">
        <ele>215.02</ele>
        <time>2013-04-14T12:45:49Z</time>
      </trkpt>
      <trkpt lat="43.76126" lon="4.7604">
        <ele>217.27</ele>
        <time>2013-04-14T12:46:04Z</time>
      </trkpt>
      <trkpt lat="43.76128" lon="4.76018">
        <ele>220.37</ele>
        <time>2013-04-14T12:46:23Z</time>
      </trkpt>
      <trkpt lat="43.76131" lon="4.75996">
        <ele>222.29</ele>
        <time>2013-04-14T12:46:45Z</time>
      </trkpt>
      <trkpt lat="43.7613" lon="4.7597">
        <ele>225.31</ele>
        <time>2013-04-14T12:47:04Z</time>
      </trkpt>
      <trkpt lat="43.76132" lon="4.75942">
        <ele>227.71</ele>
        <time>2013-04-14T12:47:25Z</time>
      </trkpt>
      <trkpt lat="43.76127" lon="4.75913">
        <ele>227.49</ele>
        <time>2013-04-14T12:47:44Z</time>
      </trkpt>
      <trkpt lat="43.76124" lon="4.75898">
        <ele>227.16</ele>
        <time>2013-04-14T12:47:58Z</time>
      </trkpt>
      <trkpt lat="43.76119" lon="4.75885">
        <ele>225.39</ele>
        <time>2013-04-14T12:48:15Z</time>
      </trkpt>
      <trkpt lat="43.76116" lon="4.75876">
        <ele>223.06</ele>
        <time>2013-04-14T12:48:35Z</time>
      </trkpt>
      <trkpt lat="43.76109" lon="4.75862">
        <ele>219.92</ele>
        <time>2013-04-14T12:48:51Z</time>
      </trkpt>
      <trkpt lat="43.76104" lon="4.75846">
        <ele>216.72</ele>
        <time>2013-04-14T12:49:02Z</time>
      </trkpt>
      <trkpt lat="43.76099" lon="4.75831">
        <ele>213.63</ele>
        <time>2013-04-14T12:49:14Z</time>
      </trkpt>
      <trkpt lat="43.76085" lon="4.75803">
        <ele>210.73</ele>
        <time>2013-04-14T12:49:34Z</time>
      </trkpt>
      <trkpt lat="43.76077" lon="4.75784">
        <ele>209.98</ele>
        <time>2013-04-14T12:49:49Z</time>
      </trkpt>
      <trkpt lat="43.76067" lon="4.75768">
        <ele>209.96</ele>
        <time>2013-04-14T12:50:06Z</time>
      </trkpt>
      <trkpt lat="43.76056" lon="4.75753">
        <ele>211.41</ele>
        <time>2013-04-14T12:50:22Z</time>
      </trkpt>
      <trkpt lat="43.76042" lon="4.75732">
        <ele>213.4</ele>
        <time>2013-04-14T12:50:45Z</time>
      </trkpt>
      <trkpt lat="43.76025" lon="4.75714">
        <ele>215.62</ele>
        <time>2013-04-14T12:51:09Z</time>
      </trkpt>
      <trkpt lat="43.76006" lon="4.75698">
        <ele>218.02</ele>
        <time>2013-04-14T12:51:34Z</time>
      </trkpt>
      <trkpt lat="43.75994" lon="4.75686">
        <ele>218.75</ele>
        <time>2013-04-14T12:51:51Z</time>
      </trkpt>
      <trkpt lat="43.75992" lon="4.75661">
        <ele>215.79</ele>
        <time>2013-04-14T12:52:13Z</time>
      </trkpt>
      <trkpt lat="43.75991" lon="4.75648">
        <ele>213.51</ele>
        <time>2013-04-14T12:52:34Z</time>
      </trkpt>
      <trkpt lat="43.75992" lon="4.75628">
        <ele>211.54</ele>
        <time>2013-04-14T12:52:59Z</time>
      </trkpt>
      <trkpt lat="43.75996" lon="4.75619">
        <ele>211.01</ele>
        <time>2013-04-14T12:53:20Z</time>
      </trkpt>
      <trkpt lat="43.75997" lon="4.75614">
        <ele>211.1</ele>
        <time>2013-04-14T12:53:24Z</time>
      </trkpt>
      <trkpt lat="43.76009" lon="4.75584">
        <ele>213.6</ele>
        <time>2013-04-14T12:53:46Z</time>
      </trkpt>
      <trkpt lat="43.76017" lon="4.75555">
        <ele>216.62</ele>
        <time>2013-04-14T12:54:04Z</time>
      </trkpt>
      <trkpt lat="43.76021" lon="4.75526">
        <ele>219.58</ele>
        <time>2013-04-14T12:54:25Z</time>
      </trkpt>
      <trkpt lat="43.76014" lon="4.7551">
        <ele>219.9</ele>
        <time>2013-04-14T12:54:37Z</time>
      </trkpt>
      <trkpt lat="43.7601" lon="4.75503">
        <ele>219.85</ele>
        <time>2013-04-14T12:54:43Z</time>
      </trkpt>
      <trkpt lat="43.76006" lon="4.75499">
        <ele>220.03</ele>
        <time>2013-04-14T12:54:47Z</time>
      </trkpt>
      <trkpt lat="43.76004" lon="4.75497">
        <ele>220.12</ele>
        <time>2013-04-14T12:54:49Z</time>
      </trkpt>
      <trkpt lat="43.75991" lon="4.75476">
        <ele>220.34</ele>
        <time>2013-04-14T12:55:06Z</time>
      </trkpt>
      <trkpt lat="43.7598" lon="4.7546">
        <ele>221.8</ele>
        <time>2013-04-14T12:55:22Z</time>
      </trkpt>
      <trkpt lat="43.75974" lon="4.75451">
        <ele>223.53</ele>
        <time>2013-04-14T12:55:42Z</time>
      </trkpt>
      <trkpt lat="43.7597" lon="4.7544">
        <ele>223.87</ele>
        <time>2013-04-14T12:56:05Z</time>
      </trkpt>
      <trkpt lat="43.75963" lon="4.75417">
        <ele>226.2</ele>
        <time>2013-04-14T12:56:26Z</time>
      </trkpt>
      <trkpt lat="43.75957" lon="4.75396">
        <ele>225.94</ele>
        <time>2013-04-14T12:56:45Z</time>
      </trkpt>
      <trkpt lat="43.75958" lon="4.75375">
        <ele>222.94</ele>
        <time>2013-04-14T12:57:03Z</time>
      </trkpt>
      <trkpt lat="43.75962" lon="4.75355">
        <ele>219.78</ele>
        <time>2013-04-14T12:57:20Z</time>
      </trkpt>
      <trkpt lat="43.75966" lon="4.75337">
        <ele>216.64</ele>
        <time>2013-04-14T12:57:36Z</time>
      </trkpt>
      <trkpt lat="43.75967" lon="4.75323">
        <ele>214.84</ele>
        <time>2013-04-14T12:57:45Z</time>
      </trkpt>
      <trkpt lat="43.75981" lon="4.75288">
        <ele>215.87</ele>
        <time>2013-04-14T12:58:12Z</time>
      </trkpt>
      <trkpt lat="43.75993" lon="4.75258">
        <ele>218.08</ele>
        <time>2013-04-14T12:58:38Z</time>
      </trkpt>
      <trkpt lat="43.75999" lon="4.75228">
        <ele>221.24</ele>
        <time>2013-04-14T12:59:05Z</time>
      </trkpt>
      <trkpt lat="43.75996" lon="4.75204">
        <ele>220.75</ele>
        <time>2013-04-14T12:59:25Z</time>
      </trkpt>
      <trkpt lat="43.75984" lon="4.7518">
        <ele>218.03</ele>
        <time>2013-04-14T12:59:50Z</time>
      </trkpt>
      <trkpt lat="43.75977" lon="4.75164">
        <ele>215.52</ele>
        <time>2013-04-14T13:00:06Z</time>
      </trkpt>
      <trkpt lat="43.75961" lon="4.75133">
        <ele>214.79</ele>
        <time>2013-04-14T13:00:32Z</time>
      </trkpt>
      <trkpt lat="43.7595" lon="4.75104">
        <ele>214.07</ele>
        <time>2013-04-14T13:00:57Z</time>
      </trkpt>
      <trkpt lat="43.75945" lon="4.75082">
        <ele>210.95</ele>
        <time>2013-04-14T13:01:16Z</time>
      </trkpt>
      <trkpt lat="43.75942" lon="4.75058">
        <ele>207.79</ele>
        <time>2013-04-14T13:01:36Z</time>
      </trkpt>
      <trkpt lat="43.75943" lon="4.75033">
        <ele>205.66</ele>
        <time>2013-04-14T13:01:58Z</time>
      </trkpt>
      <trkpt lat="43.75941" lon="4.75029">
        <ele>205.63</ele>
        <time>2013-04-14T13:02:25Z</time>
      </trkpt>
      <trkpt lat="43.75942" lon="4.75029">
        <ele>205.97</ele>
        <time>2013-04-14T13:02:57Z</time>
      </trkpt>
      <trkpt lat="43.75941" lon="4.75031">
        <ele>206.58</ele>
        <time>2013-04-14T13:03:31Z</time>
      </trkpt>
      <trkpt lat="43.75941" lon="4.7503">
        <ele>206.55</ele>
        <time>2013-04-14T13:04:01Z</time>
      </trkpt>
      <trkpt lat="43.75943" lon="4.75028">
        <ele>206.67</ele>
        <time>2013-04-14T13:04:33Z</time>
      </trkpt>
      <trkpt lat="43.75944" lon="4.75027">
        <ele>206.39</ele>
        <time>2013-04-14T13:05:05Z</time>
      </trkpt>
      <trkpt lat="43.75944" lon="4.75026">
        <ele>206.28</ele>
        <time>2013-04-14T13:05:31Z</time>
      </trkpt>
      <trkpt lat="43.75944" lon="4.75025">
        <ele>206.64</ele>
        <time>2013-04-14T13:06:02Z</time>
      </trkpt>
      <trkpt lat="43.75948" lon="4.75001">
        <ele>207.33</ele>
        <time>2013-04-14T13:06:29Z</time>
      </trkpt>
      <trkpt lat="43.7596" lon="4.7497">
        <ele>207.72</ele>
        <time>2013-04-14T13:06:56Z</time>
      </trkpt>
      <trkpt lat="43.75975" lon="4.74947">
        <ele>210.47</ele>
        <time>2013-04-14T13:07:22Z</time>
      </trkpt>
      <trkpt lat="43.75971" lon="4.74922">
        <ele>208.74</ele>
        <time>2013-04-14T13:07:44Z</time>
      </trkpt>
      <trkpt lat="43.75966" lon="4.74903">
        <ele>206.58</ele>
        <time>2013-04-14T13:08:06Z</time>
      </trkpt>
      <trkpt lat="43.75952" lon="4.74879">
        <ele>203.52</ele>
        <time>2013-04-14T13:08:32Z</time>
      </trkpt>
      <trkpt lat="43.75947" lon="4.74851">
        <ele>203.01</ele>
        <time>2013-04-14T13:08:52Z</time>
      </trkpt>
      <trkpt lat="43.75943" lon="4.74831">
        <ele>204.97</ele>
        <time>2013-04-14T13:09:10Z</time>
      </trkpt>
      <trkpt lat="43.7594" lon="4.74809">
        <ele>208.18</ele>
        <time>2013-04-14T13:09:33Z</time>
      </trkpt>
      <trkpt lat="43.75934" lon="4.74787">
        <ele>210.68</ele>
        <time>2013-04-14T13:09:56Z</time>
      </trkpt>
      <trkpt lat="43.75926" lon="4.74776">
        <ele>209.4</ele>
        <time>2013-04-14T13:10:14Z</time>
      </trkpt>
      <trkpt lat="43.75914" lon="4.74772">
        <ele>206.99</ele>
        <time>2013-04-14T13:10:29Z</time>
      </trkpt>
      <trkpt lat="43.75897" lon="4.74764">
        <ele>203.82</ele>
        <time>2013-04-14T13:10:47Z</time>
      </trkpt>
      <trkpt lat="43.7588" lon="4.74754">
        <ele>202.53</ele>
        <time>2013-04-14T13:11:06Z</time>
      </trkpt>
      <trkpt lat="43.75858" lon="4.74733">
        <ele>202.82</ele>
        <time>2013-04-14T13:11:29Z</time>
      </trkpt>
      <trkpt lat="43.75852" lon="4.74716">
        <ele>201.51</ele>
        <time>2013-04-14T13:11:45Z</time>
      </trkpt>
      <trkpt lat="43.7585" lon="4.74705">
        <ele>199.28</ele>
        <time>2013-04-14T13:12:05Z</time>
      </trkpt>
      <trkpt lat="43.75849" lon="4.74706">
        <ele>199.06</ele>
        <time>2013-04-14T13:12:35Z</time>
      </trkpt>
      <trkpt lat="43.75846" lon="4.74688">
        <ele>195.93</ele>
        <time>2013-04-14T13:12:57Z</time>
      </trkpt>
      <trkpt lat="43.75847" lon="4.74667">
        <ele>192.87</ele>
        <time>2013-04-14T13:13:13Z</time>
      </trkpt>
      <trkpt lat="43.75844" lon="4.74653">
        <ele>189.81</ele>
        <time>2013-04-14T13:13:25Z</time>
      </trkpt>
      <trkpt lat="43.7584" lon="4.74635">
        <ele>186.7</ele>
        <time>2013-04-14T13:13:39Z</time>
      </trkpt>
      <trkpt lat="43.75835" lon="4.74622">
        <ele>183.56</ele>
        <time>2013-04-14T13:13:52Z</time>
      </trkpt>
      <trkpt lat="43.75831" lon="4.74605">
        <ele>180.56</ele>
        <time>2013-04-14T13:14:07Z</time>
      </trkpt>
      <trkpt lat="43.75827" lon="4.74588">
        <ele>177.4</ele>
        <time>2013-04-14T13:14:21Z</time>
      </trkpt>
      <trkpt lat="43.75821" lon="4.74579">
        <ele>175.66</ele>
        <time>2013-04-14T13:14:31Z</time>
      </trkpt>
      <trkpt lat="43.75815" lon="4.7455">
        <ele>172.19</ele>
        <time>2013-04-14T13:14:52Z</time>
      </trkpt>
      <trkpt lat="43.75809" lon="4.74535">
        <ele>169.1</ele>
        <time>2013-04-14T13:15:11Z</time>
      </trkpt>
      <trkpt lat="43.75806" lon="4.74506">
        <ele>165.97</ele>
        <time>2013-04-14T13:15:28Z</time>
      </trkpt>
      <trkpt lat="43.75802" lon="4.7449">
        <ele>162.77</ele>
        <time>2013-04-14T13:15:45Z</time>
      </trkpt>
      <trkpt lat="43.758" lon="4.74473">
        <ele>159.71</ele>
        <time>2013-04-14T13:16:01Z</time>
      </trkpt>
      <trkpt lat="43.75792" lon="4.74439">
        <ele>158.06</ele>
        <time>2013-04-14T13:16:23Z</time>
      </trkpt>
      <trkpt lat="43.75787" lon="4.7441">
        <ele>155.41</ele>
        <time>2013-04-14T13:16:48Z</time>
      </trkpt>
      <trkpt lat="43.75787" lon="4.74398">
        <ele>154.23</ele>
        <time>2013-04-14T13:17:09Z</time>
      </trkpt>
      <trkpt lat="43.75792" lon="4.74377">
        <ele>152.6</ele>
        <time>2013-04-14T13:17:31Z</time>
      </trkpt>
      <trkpt lat="43.75791" lon="4.74373">
        <ele>152.28</ele>
        <time>2013-04-14T13:18:04Z</time>
      </trkpt>
      <trkpt lat="43.75792" lon="4.7437">
        <ele>152.22</ele>
        <time>2013-04-14T13:18:35Z</time>
      </trkpt>
      <trkpt lat="43.75794" lon="4.74374">
        <ele>152.67</ele>
        <time>2013-04-14T13:19:02Z</time>
      </trkpt>
      <trkpt lat="43.75794" lon="4.74376">
        <ele>152.6</ele>
        <time>2013-04-14T13:19:35Z</time>
      </trkpt>
      <trkpt lat="43.75804" lon="4.74355">
        <ele>149.97</ele>
        <time>2013-04-14T13:19:51Z</time>
      </trkpt>
      <trkpt lat="43.75814" lon="4.74336">
        <ele>146.64</ele>
        <time>2013-04-14T13:20:06Z</time>
      </trkpt>
      <trkpt lat="43.7583" lon="4.74319">
        <ele>143.64</ele>
        <time>2013-04-14T13:20:23Z</time>
      </trkpt>
      <trkpt lat="43.75853" lon="4.74315">
        <ele>140.46</ele>
        <time>2013-04-14T13:20:43Z</time>
      </trkpt>
      <trkpt lat="43.75875" lon="4.74308">
        <ele>137.29</ele>
        <time>2013-04-14T13:21:02Z</time>
      </trkpt>
      <trkpt lat="43.75894" lon="4.7429">
        <ele>134.14</ele>
        <time>2013-04-14T13:21:21Z</time>
      </trkpt>
      <trkpt lat="43.75905" lon="4.74274">
        <ele>131.65</ele>
        <time>2013-04-14T13:21:36Z</time>
      </trkpt>
      <trkpt lat="43.7591" lon="4.7427">
        <ele>131.13</ele>
        <time>2013-04-14T13:21:43Z</time>
      </trkpt>
      <trkpt lat="43.75922" lon="4.74263">
        <ele>128.93</ele>
        <time>2013-04-14T13:21:58Z</time>
      </trkpt>
      <trkpt lat="43.75927" lon="4.74256">
        <ele>127.89</ele>
        <time>2013-04-14T13:22:15Z</time>
      </trkpt>
      <trkpt lat="43.7595" lon="4.74232">
        <ele>125.43</ele>
        <time>2013-04-14T13:22:38Z</time>
      </trkpt>
      <trkpt lat="43.75968" lon="4.74207">
        <ele>123.45</ele>
        <time>2013-04-14T13:22:59Z</time>
      </trkpt>
      <trkpt lat="43.75974" lon="4.74194">
        <ele>122.33</ele>
        <time>2013-04-14T13:23:09Z</time>
      </trkpt>
      <trkpt lat="43.75977" lon="4.74172">
        <ele>120.87</ele>
        <time>2013-04-14T13:23:23Z</time>
      </trkpt>
      <trkpt lat="43.75975" lon="4.74158">
        <ele>119.18</ele>
        <time>2013-04-14T13:23:35Z</time>
      </trkpt>
      <trkpt lat="43.75978" lon="4.74142">
        <ele>117.23</ele>
        <time>2013-04-14T13:23:47Z</time>
      </trkpt>
      <trkpt lat="43.75981" lon="4.74131">
        <ele>116.11</ele>
        <time>2013-04-14T13:23:53Z</time>
      </trkpt>
      <trkpt lat="43.75991" lon="4.74117">
        <ele>113.21</ele>
        <time>2013-04-14T13:24:06Z</time>
      </trkpt>
      <trkpt lat="43.76002" lon="4.74103">
        <ele>112.36</ele>
        <time>2013-04-14T13:24:19Z</time>
      </trkpt>
      <trkpt lat="43.76003" lon="4.741">
        <ele>112.13</ele>
        <time>2013-04-14T13:24:33Z</time>
      </trkpt>
      <trkpt lat="43.76002" lon="4.74098">
        <ele>112.19</ele>
        <time>2013-04-14T13:24:50Z</time>
      </trkpt>
      <trkpt lat="43.76003" lon="4.74098">
        <ele>111.96</ele>
        <time>2013-04-14T13:25:17Z</time>
      </trkpt>
      <trkpt lat="43.76002" lon="4.74097">
        <ele>112.01</ele>
        <time>2013-04-14T13:25:48Z</time>
      </trkpt>
      <trkpt lat="43.75998" lon="4.74098">
        <ele>111.94</ele>
        <time>2013-04-14T13:26:05Z</time>
      </trkpt>
      <trkpt lat="43.75998" lon="4.74098">
        <ele>112.11</ele>
        <time>2013-04-14T13:26:21Z</time>
      </trkpt>
      <trkpt lat="43.76002" lon="4.74096">
        <ele>112.17</ele>
        <time>2013-04-14T13:26:38Z</time>
      </trkpt>
      <trkpt lat="43.76" lon="4.74096">
        <ele>112.1</ele>
        <time>2013-04-14T13:27:13Z</time>
      </trkpt>
      <trkpt lat="43.76" lon="4.74098">
        <ele>112.18</ele>
        <time>2013-04-14T13:27:44Z</time>
      </trkpt>
      <trkpt lat="43.76" lon="4.74102">
        <ele>111.9</ele>
        <time>2013-04-14T13:28:15Z</time>
      </trkpt>
      <trkpt lat="43.75999" lon="4.74077">
        <ele>113.15</ele>
        <time>2013-04-14T13:28:38Z</time>
      </trkpt>
      <trkpt lat="43.76008" lon="4.74059">
        <ele>113.03</ele>
        <time>2013-04-14T13:29:03Z</time>
      </trkpt>
      <trkpt lat="43.76017" lon="4.74028">
        <ele>113.82</ele>
        <time>2013-04-14T13:29:31Z</time>
      </trkpt>
      <trkpt lat="43.76003" lon="4.73999">
        <ele>115.62</ele>
        <time>2013-04-14T13:29:55Z</time>
      </trkpt>
      <trkpt lat="43.75979" lon="4.7399">
        <ele>117.3</ele>
        <time>2013-04-14T13:30:21Z</time>
      </trkpt>
      <trkpt lat="43.75972" lon="4.73974">
        <ele>119.99</ele>
        <time>2013-04-14T13:30:42Z</time>
      </trkpt>
      <trkpt lat="43.75965" lon="4.73955">
        <ele>120.83</ele>
        <time>2013-04-14T13:30:57Z</time>
      </trkpt>
      <trkpt lat="43.75968" lon="4.73908">
        <ele>121.99</ele>
        <time>2013-04-14T13:31:26Z</time>
      </trkpt>
      <trkpt lat="43.75987" lon="4.73892">
        <ele>123.07</ele>
        <time>2013-04-14T13:31:45Z</time>
      </trkpt>
      <trkpt lat="43.76002" lon="4.73866">
        <ele>125.08</ele>
        <time>2013-04-14T13:32:12Z</time>
      </trkpt>
      <trkpt lat="43.76008" lon="4.7383">
        <ele>127.78</ele>
        <time>2013-04-14T13:32:37Z</time>
      </trkpt>
      <trkpt lat="43.76009" lon="4.73798">
        <ele>130</ele>
        <time>2013-04-14T13:33:01Z</time>
      </trkpt>
      <trkpt lat="43.76" lon="4.73766">
        <ele>131.29</ele>
        <time>2013-04-14T13:33:25Z</time>
      </trkpt>
      <trkpt lat="43.76001" lon="4.73767">
        <ele>131.07</ele>
        <time>2013-04-14T13:33:50Z</time>
      </trkpt>
      <trkpt lat="43.75993" lon="4.73761">
        <ele>131.79</ele>
        <time>2013-04-14T13:34:13Z</time>
      </trkpt>
      <trkpt lat="43.75992" lon="4.73761">
        <ele>131.76</ele>
        <time>2013-04-14T13:34:41Z</time>
      </trkpt>
      <trkpt lat="43.75992" lon="4.7376">
        <ele>131.55</ele>
        <time>2013-04-14T13:35:08Z</time>
      </trkpt>
      <trkpt lat="43.75993" lon="4.7376">
        <ele>130.75</ele>
        <time>2013-04-14T13:35:38Z</time>
      </trkpt>
      <trkpt lat="43.75992" lon="4.7376">
        <ele>131.46</ele>
        <time>2013-04-14T13:35:57Z</time>
      </trkpt>
      <trkpt lat="43.75996" lon="4.73755">
        <ele>130.78</ele>
        <time>2013-04-14T13:36:23Z</time>
      </trkpt>
      <trkpt lat="43.75995" lon="4.73754">
        <ele>130.99</ele>
        <time>2013-04-14T13:36:53Z</time>
      </trkpt>
      <trkpt lat="43.75996" lon="4.73754">
        <ele>130.46</ele>
        <time>2013-04-14T13:37:23Z</time>
      </trkpt>
      <trkpt lat="43.75995" lon="4.73755">
        <ele>129.99</ele>
        <time>2013-04-14T13:37:54Z</time>
      </trkpt>
      <trkpt lat="43.75997" lon="4.73755">
        <ele>129.94</ele>
        <time>2013-04-14T13:38:18Z</time>
      </trkpt>
      <trkpt lat="43.75982" lon="4.73743">
        <ele>130.65</ele>
        <time>2013-04-14T13:38:44Z</time>
      </trkpt>
      <trkpt lat="43.7598" lon="4.73741">
        <ele>130.8</ele>
        <time>2013-04-14T13:38:46Z</time>
      </trkpt>
      <trkpt lat="43.7597" lon="4.7371">
        <ele>132.65</ele>
        <time>2013-04-14T13:39:11Z</time>
      </trkpt>
      <trkpt lat="43.75962" lon="4.73667">
        <ele>134.86</ele>
        <time>2013-04-14T13:39:41Z</time>
      </trkpt>
      <trkpt lat="43.75967" lon="4.73653">
        <ele>135.43</ele>
        <time>2013-04-14T13:39:50Z</time>
      </trkpt>
      <trkpt lat="43.75978" lon="4.73598">
        <ele>137.74</ele>
        <time>2013-04-14T13:40:23Z</time>
      </trkpt>
      <trkpt lat="43.75988" lon="4.73554">
        <ele>140.25</ele>
        <time>2013-04-14T13:40:51Z</time>
      </trkpt>
      <trkpt lat="43.75987" lon="4.73546">
        <ele>140.59</ele>
        <time>2013-04-14T13:40:57Z</time>
      </trkpt>
      <trkpt lat="43.75986" lon="4.73533">
        <ele>140.72</ele>
        <time>2013-04-14T13:41:05Z</time>
      </trkpt>
      <trkpt lat="43.75986" lon="4.73509">
        <ele>142.52</ele>
        <time>2013-04-14T13:41:23Z</time>
      </trkpt>
      <trkpt lat="43.75984" lon="4.73479">
        <ele>143.97</ele>
        <time>2013-04-14T13:41:41Z</time>
      </trkpt>
      <trkpt lat="43.75981" lon="4.73474">
        <ele>144.07</ele>
        <time>2013-04-14T13:41:45Z</time>
      </trkpt>
      <trkpt lat="43.75965" lon="4.73454">
        <ele>144.57</ele>
        <time>2013-04-14T13:42:03Z</time>
      </trkpt>
      <trkpt lat="43.75956" lon="4.73439">
        <ele>145.07</ele>
        <time>2013-04-14T13:42:15Z</time>
      </trkpt>
      <trkpt lat="43.75938" lon="4.73422">
        <ele>146.31</ele>
        <time>2013-04-14T13:42:31Z</time>
      </trkpt>
      <trkpt lat="43.75925" lon="4.73397">
        <ele>148.08</ele>
        <time>2013-04-14T13:42:49Z</time>
      </trkpt>
      <trkpt lat="43.75918" lon="4.73387">
        <ele>147.45</ele>
        <time>2013-04-14T13:43:08Z</time>
      </trkpt>
      <trkpt lat="43.75919" lon="4.73383">
        <ele>147.12</ele>
        <time>2013-04-14T13:43:41Z</time>
      </trkpt>
      <trkpt lat="43.7592" lon="4.73384">
        <ele>146.78</ele>
        <time>2013-04-14T13:44:11Z</time>
      </trkpt>
      <trkpt lat="43.75918" lon="4.73383">
        <ele>147.51</ele>
        <time>2013-04-14T13:44:40Z</time>
      </trkpt>
      <trkpt lat="43.75919" lon="4.73383">
        <ele>147.79</ele>
        <time>2013-04-14T13:45:09Z</time>
      </trkpt>
      <trkpt lat="43.75919" lon="4.73384">
        <ele>147.71</ele>
        <time>2013-04-14T13:45:36Z</time>
      </trkpt>
      <trkpt lat="43.7592" lon="4.73385">
        <ele>146.97</ele>
        <time>2013-04-14T13:46:06Z</time>
      </trkpt>
      <trkpt lat="43.75919" lon="4.73384">
        <ele>146.96</ele>
        <time>2013-04-14T13:46:38Z</time>
      </trkpt>
      <trkpt lat="43.7592" lon="4.73382">
        <ele>146.47</ele>
        <time>2013-04-14T13:47:01Z</time>
      </trkpt>
      <trkpt lat="43.75911" lon="4.73383">
        <ele>145.35</ele>
        <time>2013-04-14T13:47:30Z</time>
      </trkpt>
      <trkpt lat="43.7589" lon="4.73384">
        <ele>143.52</ele>
        <time>2013-04-14T13:47:48Z</time>
      </trkpt>
      <trkpt lat="43.75879" lon="4.73388">
        <ele>142.03</ele>
        <time>2013-04-14T13:48:00Z</time>
      </trkpt>
      <trkpt lat="43.75851" lon="4.73411">
        <ele>139.48</ele>
        <time>2013-04-14T13:48:27Z</time>
      </trkpt>
      <trkpt lat="43.75841" lon="4.73433">
        <ele>138.06</ele>
        <time>2013-04-14T13:48:44Z</time>
      </trkpt>
      <trkpt lat="43.75837" lon="4.73438">
        <ele>137.13</ele>
        <time>2013-04-14T13:48:51Z</time>
      </trkpt>
      <trkpt lat="43.75829" lon="4.73426">
        <ele>133.61</ele>
        <time>2013-04-14T13:49:07Z</time>
      </trkpt>
      <trkpt lat="43.75828" lon="4.73424">
        <ele>133.17</ele>
        <time>2013-04-14T13:49:09Z</time>
      </trkpt>
      <trkpt lat="43.75818" lon="4.73403">
        <ele>130.6</ele>
        <time>2013-04-14T13:49:27Z</time>
      </trkpt>
      <trkpt lat="43.75816" lon="4.73381">
        <ele>128.97</ele>
        <time>2013-04-14T13:49:43Z</time>
      </trkpt>
      <trkpt lat="43.75815" lon="4.73349">
        <ele>128.74</ele>
        <time>2013-04-14T13:50:07Z</time>
      </trkpt>
      <trkpt lat="43.75813" lon="4.73346">
        <ele>128.37</ele>
        <time>2013-04-14T13:50:30Z</time>
      </trkpt>
      <trkpt lat="43.75812" lon="4.73346">
        <ele>127.95</ele>
        <time>2013-04-14T13:50:56Z</time>
      </trkpt>
      <trkpt lat="43.75808" lon="4.73347">
        <ele>127.63</ele>
        <time>2013-04-14T13:51:26Z</time>
      </trkpt>
      <trkpt lat="43.75805" lon="4.73348">
        <ele>128.01</ele>
        <time>2013-04-14T13:51:50Z</time>
      </trkpt>
      <trkpt lat="43.75807" lon="4.73348">
        <ele>127.67</ele>
        <time>2013-04-14T13:52:17Z</time>
      </trkpt>
      <trkpt lat="43.75807" lon="4.7335">
        <ele>127.37</ele>
        <time>2013-04-14T13:52:45Z</time>
      </trkpt>
      <trkpt lat="43.75807" lon="4.7335">
        <ele>127.34</ele>
        <time>2013-04-14T13:53:07Z</time>
      </trkpt>
      <trkpt lat="43.75809" lon="4.73351">
        <ele>127.88</ele>
        <time>2013-04-14T13:53:25Z</time>
      </trkpt>
      <trkpt lat="43.75809" lon="4.7335">
        <ele>126.87</ele>
        <time>2013-04-14T13:53:53Z</time>
      </trkpt>
      <trkpt lat="43.75809" lon="4.73349">
        <ele>127.32</ele>
        <time>2013-04-14T13:54:21Z</time>
      </trkpt>
      <trkpt lat="43.75808" lon="4.73347">
        <ele>127.58</ele>
        <time>2013-04-14T13:54:51Z</time>
      </trkpt>
      <trkpt lat="43.75808" lon="4.73344">
        <ele>126.87</ele>
        <time>2013-04-14T13:55:21Z</time>
      </trkpt>
      <trkpt lat="43.75808" lon="4.73343">
        <ele>126.66</ele>
        <time>2013-04-14T13:55:50Z</time>
      </trkpt>
      <trkpt lat="43.75807" lon="4.73344">
        <ele>126.65</ele>
        <time>2013-04-14T13:56:20Z</time>
      </trkpt>
      <trkpt lat="43.75809" lon="4.73343">
        <ele>127.16</ele>
        <time>2013-04-14T13:56:52Z</time>
      </trkpt>
      <trkpt lat="43.75806" lon="4.73341">
        <ele>126.94</ele>
        <time>2013-04-14T13:57:19Z</time>
      </trkpt>
      <trkpt lat="43.75806" lon="4.73343">
        <ele>127.48</ele>
        <time>2013-04-14T13:57:44Z</time>
      </trkpt>
      <trkpt lat="43.75803" lon="4.73329">
        <ele>127.37</ele>
        <time>2013-04-14T13:58:04Z</time>
      </trkpt>
      <trkpt lat="43.75793" lon="4.73303">
        <ele>128.15</ele>
        <time>2013-04-14T13:58:28Z</time>
      </trkpt>
      <trkpt lat="43.75789" lon="4.73288">
        <ele>129.03</ele>
        <time>2013-04-14T13:58:40Z</time>
      </trkpt>
      <trkpt lat="43.75779" lon="4.73255">
        <ele>131.74</ele>
        <time>2013-04-14T13:59:06Z</time>
      </trkpt>
      <trkpt lat="43.7578" lon="4.73229">
        <ele>133.87</ele>
        <time>2013-04-14T13:59:30Z</time>
      </trkpt>
      <trkpt lat="43.75773" lon="4.73203">
        <ele>137.17</ele>
        <time>2013-04-14T13:59:49Z</time>
      </trkpt>
      <trkpt lat="43.75767" lon="4.73196">
        <ele>139.08</ele>
        <time>2013-04-14T13:59:56Z</time>
      </trkpt>
      <trkpt lat="43.75752" lon="4.73171">
        <ele>140.01</ele>
        <time>2013-04-14T14:00:17Z</time>
      </trkpt>
      <trkpt lat="43.75748" lon="4.73158">
        <ele>140.61</ele>
        <time>2013-04-14T14:00:26Z</time>
      </trkpt>
      <trkpt lat="43.75752" lon="4.73131">
        <ele>143.88</ele>
        <time>2013-04-14T14:00:48Z</time>
      </trkpt>
      <trkpt lat="43.75756" lon="4.73106">
        <ele>146.95</ele>
        <time>2013-04-14T14:01:08Z</time>
      </trkpt>
      <trkpt lat="43.75758" lon="4.73085">
        <ele>149.95</ele>
        <time>2013-04-14T14:01:26Z</time>
      </trkpt>
      <trkpt lat="43.75771" lon="4.73064">
        <ele>151.66</ele>
        <time>2013-04-14T14:01:50Z</time>
      </trkpt>
      <trkpt lat="43.75778" lon="4.73042">
        <ele>152.15</ele>
        <time>2013-04-14T14:02:09Z</time>
      </trkpt>
      <trkpt lat="43.75783" lon="4.73029">
        <ele>152.62</ele>
        <time>2013-04-14T14:02:20Z</time>
      </trkpt>
      <trkpt lat="43.75795" lon="4.73002">
        <ele>153.57</ele>
        <time>2013-04-14T14:02:43Z</time>
      </trkpt>
      <trkpt lat="43.75806" lon="4.72966">
        <ele>156.18</ele>
        <time>2013-04-14T14:03:10Z</time>
      </trkpt>
      <trkpt lat="43.75811" lon="4.72941">
        <ele>156.87</ele>
        <time>2013-04-14T14:03:28Z</time>
      </trkpt>
      <trkpt lat="43.75817" lon="4.72933">
        <ele>158.04</ele>
        <time>2013-04-14T14:03:36Z</time>
      </trkpt>
      <trkpt lat="43.75833" lon="4.72907">
        <ele>160.06</ele>
        <time>2013-04-14T14:03:57Z</time>
      </trkpt>
      <trkpt lat="43.75844" lon="4.72886">
        <ele>161.34</ele>
        <time>2013-04-14T14:04:16Z</time>
      </trkpt>
      <trkpt lat="43.75855" lon="4.72867">
        <ele>162.3</ele>
        <time>2013-04-14T14:04:33Z</time>
      </trkpt>
      <trkpt lat="43.75858" lon="4.72866">
        <ele>162.48</ele>
        <time>2013-04-14T14:04:35Z</time>
      </trkpt>
      <trkpt lat="43.75862" lon="4.72862">
        <ele>162.88</ele>
        <time>2013-04-14T14:04:39Z</time>
      </trkpt>
      <trkpt lat="43.75875" lon="4.72853">
        <ele>164.18</ele>
        <time>2013-04-14T14:04:53Z</time>
      </trkpt>
      <trkpt lat="43.75896" lon="4.72832">
        <ele>165.69</ele>
        <time>2013-04-14T14:05:16Z</time>
      </trkpt>
      <trkpt lat="43.75917" lon="4.72823">
        <ele>168.06</ele>
        <time>2013-04-14T14:05:39Z</time>
      </trkpt>
      <trkpt lat="43.75938" lon="4.72811">
        <ele>169.53</ele>
        <time>2013-04-14T14:05:58Z</time>
      </trkpt>
      <trkpt lat="43.7595" lon="4.728">
        <ele>170.76</ele>
        <time>2013-04-14T14:06:13Z</time>
      </trkpt>
      <trkpt lat="43.7596" lon="4.72793">
        <ele>171.59</ele>
        <time>2013-04-14T14:06:22Z</time>
      </trkpt>
      <trkpt lat="43.75976" lon="4.72791">
        <ele>173.38</ele>
        <time>2013-04-14T14:06:36Z</time>
      </trkpt>
      <trkpt lat="43.75988" lon="4.72786">
        <ele>173</ele>
        <time>2013-04-14T14:06:47Z</time>
      </trkpt>
      <trkpt lat="43.7599" lon="4.72783">
        <ele>173.05</ele>
        <time>2013-04-14T14:06:50Z</time>
      </trkpt>
      <trkpt lat="43.7601" lon="4.72771">
        <ele>173.46</ele>
        <time>2013-04-14T14:07:05Z</time>
      </trkpt>
      <trkpt lat="43.76023" lon="4.72759">
        <ele>173.84</ele>
        <time>2013-04-14T14:07:17Z</time>
      </trkpt>
      <trkpt lat="43.76036" lon="4.72747">
        <ele>174.07</ele>
        <time>2013-04-14T14:07:30Z</time>
      </trkpt>
      <trkpt lat="43.76037" lon="4.72745">
        <ele>174.09</ele>
        <time>2013-04-14T14:07:32Z</time>
      </trkpt>
      <trkpt lat="43.76047" lon="4.72731">
        <ele>175.12</ele>
        <time>2013-04-14T14:07:46Z</time>
      </trkpt>
      <trkpt lat="43.76053" lon="4.72727">
        <ele>175.06</ele>
        <time>2013-04-14T14:07:51Z</time>
      </trkpt>
      <trkpt lat="43.76065" lon="4.72719">
        <ele>175.28</ele>
        <time>2013-04-14T14:08:01Z</time>
      </trkpt>
      <trkpt lat="43.76078" lon="4.7271">
        <ele>176.15</ele>
        <time>2013-04-14T14:08:14Z</time>
      </trkpt>
      <trkpt lat="43.76089" lon="4.72696">
        <ele>177.63</ele>
        <time>2013-04-14T14:08:29Z</time>
      </trkpt>
      <trkpt lat="43.76099" lon="4.72682">
        <ele>179.04</ele>
        <time>2013-04-14T14:08:44Z</time>
      </trkpt>
      <trkpt lat="43.76108" lon="4.72663">
        <ele>179.76</ele>
        <time>2013-04-14T14:09:07Z</time>
      </trkpt>
      <trkpt lat="43.76117" lon="4.72661">
        <ele>180.34</ele>
        <time>2013-04-14T14:09:30Z</time>
      </trkpt>
      <trkpt lat="43.76119" lon="4.72663">
        <ele>180.59</ele>
        <time>2013-04-14T14:10:03Z</time>
      </trkpt>
      <trkpt lat="43.76118" lon="4.72667">
        <ele>181.31</ele>
        <time>2013-04-14T14:10:30Z</time>
      </trkpt>
      <trkpt lat="43.76118" lon="4.72673">
        <ele>181.33</ele>
        <time>2013-04-14T14:10:53Z</time>
      </trkpt>
      <trkpt lat="43.76113" lon="4.72668">
        <ele>180.81</ele>
        <time>2013-04-14T14:11:19Z</time>
      </trkpt>
      <trkpt lat="43.76116" lon="4.72665">
        <ele>180.6</ele>
        <time>2013-04-14T14:11:46Z</time>
      </trkpt>
      <trkpt lat="43.76126" lon="4.72656">
        <ele>181.4</ele>
        <time>2013-04-14T14:12:15Z</time>
      </trkpt>
      <trkpt lat="43.76148" lon="4.72642">
        <ele>183.42</ele>
        <time>2013-04-14T14:12:37Z</time>
      </trkpt>
      <trkpt lat="43.76166" lon="4.72622">
        <ele>184.69</ele>
        <time>2013-04-14T14:13:03Z</time>
      </trkpt>
      <trkpt lat="43.76183" lon="4.72588">
        <ele>186.36</ele>
        <time>2013-04-14T14:13:31Z</time>
      </trkpt>
      <trkpt lat="43.76188" lon="4.72572">
        <ele>187.5</ele>
        <time>2013-04-14T14:13:44Z</time>
      </trkpt>
      <trkpt lat="43.76195" lon="4.72543">
        <ele>188.72</ele>
        <time>2013-04-14T14:14:06Z</time>
      </trkpt>
      <trkpt lat="43.76194" lon="4.72539">
        <ele>188.72</ele>
        <time>2013-04-14T14:14:09Z</time>
      </trkpt>
      <trkpt lat="43.76187" lon="4.72506">
        <ele>188.24</ele>
        <time>2013-04-14T14:14:31Z</time>
      </trkpt>
      <trkpt lat="43.76186" lon="4.72468">
        <ele>187.67</ele>
        <time>2013-04-14T14:14:57Z</time>
      </trkpt>
      <trkpt lat="43.76189" lon="4.72436">
        <ele>187.44</ele>
        <time>2013-04-14T14:15:16Z</time>
      </trkpt>
      <trkpt lat="43.7619" lon="4.72431">
        <ele>187.48</ele>
        <time>2013-04-14T14:15:19Z</time>
      </trkpt>
      <trkpt lat="43.7619" lon="4.72427">
        <ele>187.48</ele>
        <time>2013-04-14T14:15:22Z</time>
      </trkpt>
      <trkpt lat="43.7619" lon="4.72409">
        <ele>186.98</ele>
        <time>2013-04-14T14:15:35Z</time>
      </trkpt>
      <trkpt lat="43.76191" lon="4.72407">
        <ele>186.54</ele>
        <time>2013-04-14T14:15:58Z</time>
      </trkpt>
      <trkpt lat="43.76191" lon="4.72402">
        <ele>186.01</ele>
        <time>2013-04-14T14:16:19Z</time>
      </trkpt>
      <trkpt lat="43.76191" lon="4.72404">
        <ele>186.35</ele>
        <time>2013-04-14T14:16:41Z</time>
      </trkpt>
      <trkpt lat="43.76191" lon="4.72403">
        <ele>186.21</ele>
        <time>2013-04-14T14:17:09Z</time>
      </trkpt>
      <trkpt lat="43.7619" lon="4.72404">
        <ele>186.19</ele>
        <time>2013-04-14T14:17:42Z</time>
      </trkpt>
      <trkpt lat="43.76191" lon="4.72404">
        <ele>186.21</ele>
        <time>2013-04-14T14:18:11Z</time>
      </trkpt>
      <trkpt lat="43.76191" lon="4.72405">
        <ele>185.9</ele>
        <time>2013-04-14T14:18:42Z</time>
      </trkpt>
      <trkpt lat="43.7619" lon="4.72407">
        <ele>185.93</ele>
        <time>2013-04-14T14:19:07Z</time>
      </trkpt>
      <trkpt lat="43.7619" lon="4.72398">
        <ele>185.82</ele>
        <time>2013-04-14T14:19:31Z</time>
      </trkpt>
      <trkpt lat="43.7619" lon="4.72381">
        <ele>185.4</ele>
        <time>2013-04-14T14:19:44Z</time>
      </trkpt>
      <trkpt lat="43.76188" lon="4.72357">
        <ele>185.25</ele>
        <time>2013-04-14T14:20:01Z</time>
      </trkpt>
      <trkpt lat="43.76188" lon="4.72354">
        <ele>185.06</ele>
        <time>2013-04-14T14:20:03Z</time>
      </trkpt>
      <trkpt lat="43.76189" lon="4.7233">
        <ele>183.86</ele>
        <time>2013-04-14T14:20:17Z</time>
      </trkpt>
      <trkpt lat="43.76188" lon="4.7231">
        <ele>183.4</ele>
        <time>2013-04-14T14:20:31Z</time>
      </trkpt>
      <trkpt lat="43.7619" lon="4.72279">
        <ele>182.5</ele>
        <time>2013-04-14T14:20:51Z</time>
      </trkpt>
      <trkpt lat="43.76191" lon="4.72256">
        <ele>181.88</ele>
        <time>2013-04-14T14:21:05Z</time>
      </trkpt>
      <trkpt lat="43.76191" lon="4.72234">
        <ele>180.89</ele>
        <time>2013-04-14T14:21:19Z</time>
      </trkpt>
      <trkpt lat="43.76192" lon="4.72214">
        <ele>179.63</ele>
        <time>2013-04-14T14:21:33Z</time>
      </trkpt>
      <trkpt lat="43.76192" lon="4.72206">
        <ele>179.49</ele>
        <time>2013-04-14T14:21:38Z</time>
      </trkpt>
      <trkpt lat="43.76194" lon="4.72183">
        <ele>178.11</ele>
        <time>2013-04-14T14:21:52Z</time>
      </trkpt>
      <trkpt lat="43.76194" lon="4.72151">
        <ele>176.69</ele>
        <time>2013-04-14T14:22:13Z</time>
      </trkpt>
      <trkpt lat="43.76198" lon="4.72105">
        <ele>175.45</ele>
        <time>2013-04-14T14:22:41Z</time>
      </trkpt>
      <trkpt lat="43.76192" lon="4.72062">
        <ele>173.09</ele>
        <time>2013-04-14T14:23:06Z</time>
      </trkpt>
      <trkpt lat="43.76192" lon="4.7204">
        <ele>171.45</ele>
        <time>2013-04-14T14:23:20Z</time>
      </trkpt>
      <trkpt lat="43.76193" lon="4.72031">
        <ele>170.59</ele>
        <time>2013-04-14T14:23:25Z</time>
      </trkpt>
      <trkpt lat="43.76199" lon="4.72017">
        <ele>169.41</ele>
        <time>2013-04-14T14:23:35Z</time>
      </trkpt>
      <trkpt lat="43.76208" lon="4.72004">
        <ele>168.52</ele>
        <time>2013-04-14T14:23:46Z</time>
      </trkpt>
      <trkpt lat="43.76218" lon="4.71988">
        <ele>167.02</ele>
        <time>2013-04-14T14:24:01Z</time>
      </trkpt>
      <trkpt lat="43.76238" lon="4.71971">
        <ele>165.93</ele>
        <time>2013-04-14T14:24:21Z</time>
      </trkpt>
      <trkpt lat="43.76251" lon="4.71947">
        <ele>164.01</ele>
        <time>2013-04-14T14:24:40Z</time>
      </trkpt>
      <trkpt lat="43.76254" lon="4.71939">
        <ele>163.69</ele>
        <time>2013-04-14T14:24:45Z</time>
      </trkpt>
      <trkpt lat="43.76255" lon="4.71933">
        <ele>163.27</ele>
        <time>2013-04-14T14:24:49Z</time>
      </trkpt>
      <trkpt lat="43.76259" lon="4.71909">
        <ele>162.37</ele>
        <time>2013-04-14T14:25:05Z</time>
      </trkpt>
      <trkpt lat="43.76263" lon="4.71877">
        <ele>161.11</ele>
        <time>2013-04-14T14:25:26Z</time>
      </trkpt>
      <trkpt lat="43.7627" lon="4.71828">
        <ele>159.55</ele>
        <time>2013-04-14T14:25:57Z</time>
      </trkpt>
      <trkpt lat="43.76281" lon="4.71783">
        <ele>157.09</ele>
        <time>2013-04-14T14:26:27Z</time>
      </trkpt>
      <trkpt lat="43.76284" lon="4.7175">
        <ele>155.46</ele>
        <time>2013-04-14T14:26:49Z</time>
      </trkpt>
      <trkpt lat="43.76287" lon="4.71725">
        <ele>154.31</ele>
        <time>2013-04-14T14:27:06Z</time>
      </trkpt>
      <trkpt lat="43.76292" lon="4.71701">
        <ele>153.35</ele>
        <time>2013-04-14T14:27:21Z</time>
      </trkpt>
      <trkpt lat="43.76302" lon="4.7168">
        <ele>152.41</ele>
        <time>2013-04-14T14:27:36Z</time>
      </trkpt>
      <trkpt lat="43.76317" lon="4.71662">
        <ele>151.67</ele>
        <time>2013-04-14T14:27:53Z</time>
      </trkpt>
      <trkpt lat="43.7633" lon="4.71645">
        <ele>150.64</ele>
        <time>2013-04-14T14:28:09Z</time>
      </trkpt>
      <trkpt lat="43.76344" lon="4.71631">
        <ele>150.23</ele>
        <time>2013-04-14T14:28:22Z</time>
      </trkpt>
      <trkpt lat="43.76353" lon="4.71617">
        <ele>149.9</ele>
        <time>2013-04-14T14:28:33Z</time>
      </trkpt>
      <trkpt lat="43.76365" lon="4.71603">
        <ele>148.87</ele>
        <time>2013-04-14T14:28:45Z</time>
      </trkpt>
      <trkpt lat="43.76385" lon="4.71587">
        <ele>148.13</ele>
        <time>2013-04-14T14:29:02Z</time>
      </trkpt>
      <trkpt lat="43.76388" lon="4.71584">
        <ele>148.03</ele>
        <time>2013-04-14T14:29:05Z</time>
      </trkpt>
      <trkpt lat="43.76393" lon="4.71572">
        <ele>147.47</ele>
        <time>2013-04-14T14:29:14Z</time>
      </trkpt>
      <trkpt lat="43.764" lon="4.71565">
        <ele>147.04</ele>
        <time>2013-04-14T14:29:21Z</time>
      </trkpt>
      <trkpt lat="43.76403" lon="4.7156">
        <ele>147.01</ele>
        <time>2013-04-14T14:29:24Z</time>
      </trkpt>
      <trkpt lat="43.76408" lon="4.71555">
        <ele>146.81</ele>
        <time>2013-04-14T14:29:29Z</time>
      </trkpt>
      <trkpt lat="43.7641" lon="4.71547">
        <ele>146.52</ele>
        <time>2013-04-14T14:29:36Z</time>
      </trkpt>
      <trkpt lat="43.76411" lon="4.71538">
        <ele>145.91</ele>
        <time>2013-04-14T14:29:42Z</time>
      </trkpt>
      <trkpt lat="43.76412" lon="4.71527">
        <ele>145.28</ele>
        <time>2013-04-14T14:29:49Z</time>
      </trkpt>
      <trkpt lat="43.76416" lon="4.71502">
        <ele>143.86</ele>
        <time>2013-04-14T14:30:06Z</time>
      </trkpt>
      <trkpt lat="43.7642" lon="4.71479">
        <ele>142.71</ele>
        <time>2013-04-14T14:30:20Z</time>
      </trkpt>
      <trkpt lat="43.7642" lon="4.71458">
        <ele>141.76</ele>
        <time>2013-04-14T14:30:33Z</time>
      </trkpt>
      <trkpt lat="43.7642" lon="4.71456">
        <ele>141.75</ele>
        <time>2013-04-14T14:30:34Z</time>
      </trkpt>
      <trkpt lat="43.76422" lon="4.71451">
        <ele>141.52</ele>
        <time>2013-04-14T14:30:37Z</time>
      </trkpt>
      <trkpt lat="43.76424" lon="4.71429">
        <ele>140.68</ele>
        <time>2013-04-14T14:30:49Z</time>
      </trkpt>
      <trkpt lat="43.76424" lon="4.71409">
        <ele>139.34</ele>
        <time>2013-04-14T14:31:01Z</time>
      </trkpt>
      <trkpt lat="43.76424" lon="4.71407">
        <ele>139.32</ele>
        <time>2013-04-14T14:31:02Z</time>
      </trkpt>
      <trkpt lat="43.76425" lon="4.71384">
        <ele>138.42</ele>
        <time>2013-04-14T14:31:15Z</time>
      </trkpt>
      <trkpt lat="43.76428" lon="4.71366">
        <ele>137.72</ele>
        <time>2013-04-14T14:31:28Z</time>
      </trkpt>
      <trkpt lat="43.76428" lon="4.71358">
        <ele>137.28</ele>
        <time>2013-04-14T14:31:33Z</time>
      </trkpt>
      <trkpt lat="43.76434" lon="4.7133">
        <ele>135.81</ele>
        <time>2013-04-14T14:31:48Z</time>
      </trkpt>
      <trkpt lat="43.76437" lon="4.71304">
        <ele>134.99</ele>
        <time>2013-04-14T14:32:04Z</time>
      </trkpt>
      <trkpt lat="43.76447" lon="4.71273">
        <ele>134.24</ele>
        <time>2013-04-14T14:32:24Z</time>
      </trkpt>
      <trkpt lat="43.76454" lon="4.71243">
        <ele>133.51</ele>
        <time>2013-04-14T14:32:43Z</time>
      </trkpt>
      <trkpt lat="43.76459" lon="4.71229">
        <ele>133.45</ele>
        <time>2013-04-14T14:32:58Z</time>
      </trkpt>
      <trkpt lat="43.76461" lon="4.71227">
        <ele>133.32</ele>
        <time>2013-04-14T14:33:21Z</time>
      </trkpt>
      <trkpt lat="43.76461" lon="4.71226">
        <ele>133.4</ele>
        <time>2013-04-14T14:33:46Z</time>
      </trkpt>
      <trkpt lat="43.76457" lon="4.71225">
        <ele>133.23</ele>
        <time>2013-04-14T14:34:19Z</time>
      </trkpt>
      <trkpt lat="43.76458" lon="4.71223">
        <ele>133.01</ele>
        <time>2013-04-14T14:34:51Z</time>
      </trkpt>
      <trkpt lat="43.76455" lon="4.7121">
        <ele>133.81</ele>
        <time>2013-04-14T14:35:11Z</time>
      </trkpt>
      <trkpt lat="43.76458" lon="4.71207">
        <ele>132.87</ele>
        <time>2013-04-14T14:35:36Z</time>
      </trkpt>
      <trkpt lat="43.76457" lon="4.71207">
        <ele>132.72</ele>
        <time>2013-04-14T14:36:08Z</time>
      </trkpt>
      <trkpt lat="43.76457" lon="4.71208">
        <ele>132.7</ele>
        <time>2013-04-14T14:36:37Z</time>
      </trkpt>
      <trkpt lat="43.76454" lon="4.71207">
        <ele>132.64</ele>
        <time>2013-04-14T14:37:15Z</time>
      </trkpt>
      <trkpt lat="43.76456" lon="4.71206">
        <ele>132.82</ele>
        <time>2013-04-14T14:37:47Z</time>
      </trkpt>
      <trkpt lat="43.76456" lon="4.71206">
        <ele>132.91</ele>
        <time>2013-04-14T14:38:15Z</time>
      </trkpt>
      <trkpt lat="43.76457" lon="4.71207">
        <ele>133.21</ele>
        <time>2013-04-14T14:38:47Z</time>
      </trkpt>
      <trkpt lat="43.76456" lon="4.71207">
        <ele>132.92</ele>
        <time>2013-04-14T14:39:15Z</time>
      </trkpt>
      <trkpt lat="43.76457" lon="4.71208">
        <ele>132.57</ele>
        <time>2013-04-14T14:39:32Z</time>
      </trkpt>
      <trkpt lat="43.76467" lon="4.71209">
        <ele>196.98</ele>
        <time>2013-04-14T14:45:22Z</time>
      </trkpt>
      <trkpt lat="43.76454" lon="4.71205">
        <ele>139.23</ele>
        <time>2013-04-14T14:45:26Z</time>
      </trkpt>
      <trkpt lat="43.76455" lon="4.71207">
        <ele>131.95</ele>
        <time>2013-04-14T14:45:27Z</time>
      </trkpt>
      <trkpt lat="43.76457" lon="4.71206">
        <ele>127.65</ele>
        <time>2013-04-14T14:45:29Z</time>
      </trkpt>
      <trkpt lat="43.76463" lon="4.71203">
        <ele>124.75</ele>
        <time>2013-04-14T14:45:35Z</time>
      </trkpt>
      <trkpt lat="43.76469" lon="4.71195">
        <ele>123.52</ele>
        <time>2013-04-14T14:45:52Z</time>
      </trkpt>
      <trkpt lat="43.76478" lon="4.71186">
        <ele>123</ele>
        <time>2013-04-14T14:46:11Z</time>
      </trkpt>
      <trkpt lat="43.76488" lon="4.71173">
        <ele>121.77</ele>
        <time>2013-04-14T14:46:27Z</time>
      </trkpt>
      <trkpt lat="43.76502" lon="4.71154">
        <ele>120.68</ele>
        <time>2013-04-14T14:46:47Z</time>
      </trkpt>
      <trkpt lat="43.7652" lon="4.71133">
        <ele>117.68</ele>
        <time>2013-04-14T14:47:10Z</time>
      </trkpt>
      <trkpt lat="43.76534" lon="4.71114">
        <ele>115.75</ele>
        <time>2013-04-14T14:47:34Z</time>
      </trkpt>
      <trkpt lat="43.76551" lon="4.71089">
        <ele>113.66</ele>
        <time>2013-04-14T14:48:00Z</time>
      </trkpt>
      <trkpt lat="43.76565" lon="4.71071">
        <ele>111.77</ele>
        <time>2013-04-14T14:48:25Z</time>
      </trkpt>
      <trkpt lat="43.76579" lon="4.71051">
        <ele>110.55</ele>
        <time>2013-04-14T14:48:49Z</time>
      </trkpt>
      <trkpt lat="43.76593" lon="4.71026">
        <ele>108.59</ele>
        <time>2013-04-14T14:49:12Z</time>
      </trkpt>
      <trkpt lat="43.76601" lon="4.70994">
        <ele>107.17</ele>
        <time>2013-04-14T14:49:34Z</time>
      </trkpt>
      <trkpt lat="43.76602" lon="4.70973">
        <ele>106.39</ele>
        <time>2013-04-14T14:49:50Z</time>
      </trkpt>
      <trkpt lat="43.76605" lon="4.70951">
        <ele>105.39</ele>
        <time>2013-04-14T14:50:07Z</time>
      </trkpt>
      <trkpt lat="43.76602" lon="4.70926">
        <ele>105.44</ele>
        <time>2013-04-14T14:50:27Z</time>
      </trkpt>
      <trkpt lat="43.76603" lon="4.70919">
        <ele>104.94</ele>
        <time>2013-04-14T14:50:32Z</time>
      </trkpt>
      <trkpt lat="43.766" lon="4.70892">
        <ele>103.92</ele>
        <time>2013-04-14T14:50:50Z</time>
      </trkpt>
      <trkpt lat="43.76597" lon="4.70872">
        <ele>102.84</ele>
        <time>2013-04-14T14:51:05Z</time>
      </trkpt>
      <trkpt lat="43.76585" lon="4.70851">
        <ele>101.23</ele>
        <time>2013-04-14T14:51:24Z</time>
      </trkpt>
      <trkpt lat="43.76572" lon="4.70825">
        <ele>99.48</ele>
        <time>2013-04-14T14:51:49Z</time>
      </trkpt>
      <trkpt lat="43.76567" lon="4.70818">
        <ele>98.9</ele>
        <time>2013-04-14T14:51:55Z</time>
      </trkpt>
      <trkpt lat="43.76563" lon="4.70804">
        <ele>98.14</ele>
        <time>2013-04-14T14:52:07Z</time>
      </trkpt>
      <trkpt lat="43.76551" lon="4.70773">
        <ele>97.15</ele>
        <time>2013-04-14T14:52:29Z</time>
      </trkpt>
      <trkpt lat="43.76545" lon="4.70763">
        <ele>96.86</ele>
        <time>2013-04-14T14:52:38Z</time>
      </trkpt>
      <trkpt lat="43.76539" lon="4.7074">
        <ele>96.13</ele>
        <time>2013-04-14T14:52:55Z</time>
      </trkpt>
      <trkpt lat="43.76533" lon="4.70724">
        <ele>94.67</ele>
        <time>2013-04-14T14:53:07Z</time>
      </trkpt>
      <trkpt lat="43.76526" lon="4.70703">
        <ele>93.67</ele>
        <time>2013-04-14T14:53:25Z</time>
      </trkpt>
      <trkpt lat="43.76518" lon="4.70681">
        <ele>92.9</ele>
        <time>2013-04-14T14:53:42Z</time>
      </trkpt>
      <trkpt lat="43.76511" lon="4.70665">
        <ele>92.78</ele>
        <time>2013-04-14T14:53:58Z</time>
      </trkpt>
      <trkpt lat="43.76502" lon="4.70645">
        <ele>91.92</ele>
        <time>2013-04-14T14:54:18Z</time>
      </trkpt>
      <trkpt lat="43.76483" lon="4.70629">
        <ele>89.77</ele>
        <time>2013-04-14T14:54:40Z</time>
      </trkpt>
      <trkpt lat="43.76469" lon="4.70612">
        <ele>87.38</ele>
        <time>2013-04-14T14:54:59Z</time>
      </trkpt>
      <trkpt lat="43.76449" lon="4.70599">
        <ele>86.26</ele>
        <time>2013-04-14T14:55:21Z</time>
      </trkpt>
      <trkpt lat="43.76437" lon="4.70591">
        <ele>85.35</ele>
        <time>2013-04-14T14:55:47Z</time>
      </trkpt>
      <trkpt lat="43.76424" lon="4.70582">
        <ele>85.19</ele>
        <time>2013-04-14T14:56:06Z</time>
      </trkpt>
      <trkpt lat="43.7641" lon="4.70565">
        <ele>83.8</ele>
        <time>2013-04-14T14:56:28Z</time>
      </trkpt>
      <trkpt lat="43.764" lon="4.70541">
        <ele>82.07</ele>
        <time>2013-04-14T14:56:46Z</time>
      </trkpt>
      <trkpt lat="43.76396" lon="4.70534">
        <ele>82.04</ele>
        <time>2013-04-14T14:56:51Z</time>
      </trkpt>
      <trkpt lat="43.76383" lon="4.70519">
        <ele>81.31</ele>
        <time>2013-04-14T14:57:07Z</time>
      </trkpt>
      <trkpt lat="43.76382" lon="4.70518">
        <ele>81.33</ele>
        <time>2013-04-14T14:57:08Z</time>
      </trkpt>
      <trkpt lat="43.76373" lon="4.70501">
        <ele>80.67</ele>
        <time>2013-04-14T14:57:23Z</time>
      </trkpt>
      <trkpt lat="43.7636" lon="4.70481">
        <ele>80.04</ele>
        <time>2013-04-14T14:57:40Z</time>
      </trkpt>
      <trkpt lat="43.76351" lon="4.70467">
        <ele>79.73</ele>
        <time>2013-04-14T14:57:55Z</time>
      </trkpt>
      <trkpt lat="43.76341" lon="4.70448">
        <ele>78.26</ele>
        <time>2013-04-14T14:58:11Z</time>
      </trkpt>
      <trkpt lat="43.76328" lon="4.7043">
        <ele>77.98</ele>
        <time>2013-04-14T14:58:27Z</time>
      </trkpt>
      <trkpt lat="43.76323" lon="4.70422">
        <ele>77.51</ele>
        <time>2013-04-14T14:58:35Z</time>
      </trkpt>
      <trkpt lat="43.76311" lon="4.70408">
        <ele>76.37</ele>
        <time>2013-04-14T14:58:50Z</time>
      </trkpt>
      <trkpt lat="43.76298" lon="4.70394">
        <ele>75.71</ele>
        <time>2013-04-14T14:59:05Z</time>
      </trkpt>
      <trkpt lat="43.76288" lon="4.70381">
        <ele>74.79</ele>
        <time>2013-04-14T14:59:18Z</time>
      </trkpt>
      <trkpt lat="43.76278" lon="4.70367">
        <ele>73.7</ele>
        <time>2013-04-14T14:59:30Z</time>
      </trkpt>
      <trkpt lat="43.76268" lon="4.7035">
        <ele>71.32</ele>
        <time>2013-04-14T14:59:45Z</time>
      </trkpt>
      <trkpt lat="43.76253" lon="4.70332">
        <ele>69.92</ele>
        <time>2013-04-14T15:00:03Z</time>
      </trkpt>
      <trkpt lat="43.76241" lon="4.70315">
        <ele>69.24</ele>
        <time>2013-04-14T15:00:19Z</time>
      </trkpt>
      <trkpt lat="43.76229" lon="4.70298">
        <ele>68.33</ele>
        <time>2013-04-14T15:00:36Z</time>
      </trkpt>
      <trkpt lat="43.76214" lon="4.7028">
        <ele>66.63</ele>
        <time>2013-04-14T15:00:55Z</time>
      </trkpt>
      <trkpt lat="43.76204" lon="4.70265">
        <ele>65.84</ele>
        <time>2013-04-14T15:01:10Z</time>
      </trkpt>
      <trkpt lat="43.76193" lon="4.70246">
        <ele>64.63</ele>
        <time>2013-04-14T15:01:27Z</time>
      </trkpt>
      <trkpt lat="43.76181" lon="4.70228">
        <ele>63.43</ele>
        <time>2013-04-14T15:01:44Z</time>
      </trkpt>
      <trkpt lat="43.76171" lon="4.70214">
        <ele>62.42</ele>
        <time>2013-04-14T15:01:58Z</time>
      </trkpt>
      <trkpt lat="43.76158" lon="4.70199">
        <ele>61.77</ele>
        <time>2013-04-14T15:02:13Z</time>
      </trkpt>
      <trkpt lat="43.76147" lon="4.70183">
        <ele>60.82</ele>
        <time>2013-04-14T15:02:27Z</time>
      </trkpt>
      <trkpt lat="43.76132" lon="4.70166">
        <ele>59.98</ele>
        <time>2013-04-14T15:02:47Z</time>
      </trkpt>
      <trkpt lat="43.76119" lon="4.70151">
        <ele>58.82</ele>
        <time>2013-04-14T15:03:02Z</time>
      </trkpt>
      <trkpt lat="43.76106" lon="4.70136">
        <ele>56.81</ele>
        <time>2013-04-14T15:03:18Z</time>
      </trkpt>
      <trkpt lat="43.76101" lon="4.70122">
        <ele>56.13</ele>
        <time>2013-04-14T15:03:31Z</time>
      </trkpt>
      <trkpt lat="43.76095" lon="4.70095">
        <ele>54.72</ele>
        <time>2013-04-14T15:03:51Z</time>
      </trkpt>
      <trkpt lat="43.761" lon="4.70071">
        <ele>53.54</ele>
        <time>2013-04-14T15:04:08Z</time>
      </trkpt>
      <trkpt lat="43.76101" lon="4.7007">
        <ele>53.45</ele>
        <time>2013-04-14T15:04:09Z</time>
      </trkpt>
      <trkpt lat="43.76116" lon="4.70055">
        <ele>51.7</ele>
        <time>2013-04-14T15:04:26Z</time>
      </trkpt>
      <trkpt lat="43.76146" lon="4.7004">
        <ele>49.68</ele>
        <time>2013-04-14T15:04:55Z</time>
      </trkpt>
      <trkpt lat="43.76168" lon="4.7002">
        <ele>48.24</ele>
        <time>2013-04-14T15:05:21Z</time>
      </trkpt>
      <trkpt lat="43.76188" lon="4.70001">
        <ele>46.44</ele>
        <time>2013-04-14T15:05:47Z</time>
      </trkpt>
      <trkpt lat="43.76205" lon="4.69976">
        <ele>44.36</ele>
        <time>2013-04-14T15:06:12Z</time>
      </trkpt>
      <trkpt lat="43.76217" lon="4.6995">
        <ele>42.12</ele>
        <time>2013-04-14T15:06:34Z</time>
      </trkpt>
      <trkpt lat="43.76219" lon="4.69915">
        <ele>40.63</ele>
        <time>2013-04-14T15:06:58Z</time>
      </trkpt>
      <trkpt lat="43.76223" lon="4.69903">
        <ele>40.1</ele>
        <time>2013-04-14T15:07:21Z</time>
      </trkpt>
      <trkpt lat="43.76231" lon="4.69902">
        <ele>40.42</ele>
        <time>2013-04-14T15:07:44Z</time>
      </trkpt>
      <trkpt lat="43.76233" lon="4.69891">
        <ele>40.26</ele>
        <time>2013-04-14T15:08:02Z</time>
      </trkpt>
      <trkpt lat="43.76235" lon="4.69888">
        <ele>40.1</ele>
        <time>2013-04-14T15:08:23Z</time>
      </trkpt>
      <trkpt lat="43.76236" lon="4.69887">
        <ele>39.97</ele>
        <time>2013-04-14T15:08:25Z</time>
      </trkpt>
      <trkpt lat="43.76252" lon="4.69885">
        <ele>39.96</ele>
        <time>2013-04-14T15:08:43Z</time>
      </trkpt>
      <trkpt lat="43.76272" lon="4.69885">
        <ele>40.7</ele>
        <time>2013-04-14T15:09:06Z</time>
      </trkpt>
      <trkpt lat="43.76296" lon="4.69886">
        <ele>40.33</ele>
        <time>2013-04-14T15:09:30Z</time>
      </trkpt>
      <trkpt lat="43.76315" lon="4.69895">
        <ele>40.45</ele>
        <time>2013-04-14T15:09:45Z</time>
      </trkpt>
      <trkpt lat="43.76333" lon="4.69908">
        <ele>40.5</ele>
        <time>2013-04-14T15:10:07Z</time>
      </trkpt>
      <trkpt lat="43.76355" lon="4.69912">
        <ele>40.23</ele>
        <time>2013-04-14T15:10:30Z</time>
      </trkpt>
      <trkpt lat="43.76371" lon="4.69927">
        <ele>40.17</ele>
        <time>2013-04-14T15:10:51Z</time>
      </trkpt>
      <trkpt lat="43.76388" lon="4.69938">
        <ele>43.13</ele>
        <time>2013-04-14T15:11:17Z</time>
      </trkpt>
      <trkpt lat="43.764" lon="4.69923">
        <ele>45.11</ele>
        <time>2013-04-14T15:11:35Z</time>
      </trkpt>
      <trkpt lat="43.76415" lon="4.69909">
        <ele>45.38</ele>
        <time>2013-04-14T15:11:56Z</time>
      </trkpt>
      <trkpt lat="43.76437" lon="4.69908">
        <ele>46.67</ele>
        <time>2013-04-14T15:12:23Z</time>
      </trkpt>
      <trkpt lat="43.76462" lon="4.69918">
        <ele>48.13</ele>
        <time>2013-04-14T15:12:46Z</time>
      </trkpt>
      <trkpt lat="43.76477" lon="4.69922">
        <ele>49.53</ele>
        <time>2013-04-14T15:13:08Z</time>
      </trkpt>
      <trkpt lat="43.76498" lon="4.69925">
        <ele>49.61</ele>
        <time>2013-04-14T15:13:33Z</time>
      </trkpt>
      <trkpt lat="43.76531" lon="4.69921">
        <ele>49.24</ele>
        <time>2013-04-14T15:14:03Z</time>
      </trkpt>
      <trkpt lat="43.76557" lon="4.69913">
        <ele>48.3</ele>
        <time>2013-04-14T15:14:29Z</time>
      </trkpt>
      <trkpt lat="43.76568" lon="4.69911">
        <ele>47.9</ele>
        <time>2013-04-14T15:14:39Z</time>
      </trkpt>
      <trkpt lat="43.76592" lon="4.69885">
        <ele>46.28</ele>
        <time>2013-04-14T15:15:04Z</time>
      </trkpt>
      <trkpt lat="43.76597" lon="4.69873">
        <ele>45.71</ele>
        <time>2013-04-14T15:15:25Z</time>
      </trkpt>
      <trkpt lat="43.76604" lon="4.69872">
        <ele>45.31</ele>
        <time>2013-04-14T15:15:47Z</time>
      </trkpt>
      <trkpt lat="43.7662" lon="4.69851">
        <ele>45.38</ele>
        <time>2013-04-14T15:16:09Z</time>
      </trkpt>
      <trkpt lat="43.76637" lon="4.69833">
        <ele>44.42</ele>
        <time>2013-04-14T15:16:33Z</time>
      </trkpt>
      <trkpt lat="43.76648" lon="4.69816">
        <ele>43.32</ele>
        <time>2013-04-14T15:16:53Z</time>
      </trkpt>
      <trkpt lat="43.76656" lon="4.69803">
        <ele>41.42</ele>
        <time>2013-04-14T15:17:08Z</time>
      </trkpt>
      <trkpt lat="43.76657" lon="4.69785">
        <ele>39.58</ele>
        <time>2013-04-14T15:17:27Z</time>
      </trkpt>
      <trkpt lat="43.76662" lon="4.69782">
        <ele>38.65</ele>
        <time>2013-04-14T15:17:48Z</time>
      </trkpt>
      <trkpt lat="43.76663" lon="4.69782">
        <ele>38.41</ele>
        <time>2013-04-14T15:18:13Z</time>
      </trkpt>
      <trkpt lat="43.76662" lon="4.69779">
        <ele>37.98</ele>
        <time>2013-04-14T15:18:36Z</time>
      </trkpt>
      <trkpt lat="43.76662" lon="4.6976">
        <ele>38.43</ele>
        <time>2013-04-14T15:18:53Z</time>
      </trkpt>
      <trkpt lat="43.7666" lon="4.69745">
        <ele>37.96</ele>
        <time>2013-04-14T15:19:10Z</time>
      </trkpt>
      <trkpt lat="43.76655" lon="4.6972">
        <ele>35.4</ele>
        <time>2013-04-14T15:19:26Z</time>
      </trkpt>
      <trkpt lat="43.76654" lon="4.69706">
        <ele>34.28</ele>
        <time>2013-04-14T15:19:35Z</time>
      </trkpt>
      <trkpt lat="43.76654" lon="4.69691">
        <ele>33.18</ele>
        <time>2013-04-14T15:19:44Z</time>
      </trkpt>
      <trkpt lat="43.76655" lon="4.69678">
        <ele>32.1</ele>
        <time>2013-04-14T15:19:52Z</time>
      </trkpt>
      <trkpt lat="43.76657" lon="4.69671">
        <ele>31.73</ele>
        <time>2013-04-14T15:19:57Z</time>
      </trkpt>
      <trkpt lat="43.76664" lon="4.69654">
        <ele>30.93</ele>
        <time>2013-04-14T15:20:11Z</time>
      </trkpt>
      <trkpt lat="43.76655" lon="4.69631">
        <ele>27.82</ele>
        <time>2013-04-14T15:20:32Z</time>
      </trkpt>
      <trkpt lat="43.76651" lon="4.69622">
        <ele>26.57</ele>
        <time>2013-04-14T15:20:39Z</time>
      </trkpt>
      <trkpt lat="43.76655" lon="4.69601">
        <ele>23.77</ele>
        <time>2013-04-14T15:20:55Z</time>
      </trkpt>
      <trkpt lat="43.7666" lon="4.69584">
        <ele>21.25</ele>
        <time>2013-04-14T15:21:11Z</time>
      </trkpt>
      <trkpt lat="43.7666" lon="4.69576">
        <ele>19.75</ele>
        <time>2013-04-14T15:21:18Z</time>
      </trkpt>
      <trkpt lat="43.7666" lon="4.69558">
        <ele>16.46</ele>
        <time>2013-04-14T15:21:33Z</time>
      </trkpt>
      <trkpt lat="43.7666" lon="4.69548">
        <ele>14.65</ele>
        <time>2013-04-14T15:21:47Z</time>
      </trkpt>
      <trkpt lat="43.76658" lon="4.69527">
        <ele>11.95</ele>
        <time>2013-04-14T15:22:06Z</time>
      </trkpt>
      <trkpt lat="43.76652" lon="4.69518">
        <ele>10.06</ele>
        <time>2013-04-14T15:22:24Z</time>
      </trkpt>
      <trkpt lat="43.76652" lon="4.6951">
        <ele>8.63</ele>
        <time>2013-04-14T15:22:31Z</time>
      </trkpt>
      <trkpt lat="43.7665" lon="4.69487">
        <ele>5.39</ele>
        <time>2013-04-14T15:22:49Z</time>
      </trkpt>
      <trkpt lat="43.7665" lon="4.6948">
        <ele>5.7</ele>
        <time>2013-04-14T15:23:12Z</time>
      </trkpt>
      <trkpt lat="43.7665" lon="4.69479">
        <ele>5.71</ele>
        <time>2013-04-14T15:23:42Z</time>
      </trkpt>
      <trkpt lat="43.76651" lon="4.69481">
        <ele>6.04</ele>
        <time>2013-04-14T15:24:11Z</time>
      </trkpt>
      <trkpt lat="43.76648" lon="4.69477">
        <ele>6.04</ele>
        <time>2013-04-14T15:24:42Z</time>
      </trkpt>
      <trkpt lat="43.76647" lon="4.69475">
        <ele>6.19</ele>
        <time>2013-04-14T15:25:12Z</time>
      </trkpt>
      <trkpt lat="43.76648" lon="4.69481">
        <ele>5.79</ele>
        <time>2013-04-14T15:25:41Z</time>
      </trkpt>
      <trkpt lat="43.76648" lon="4.69481">
        <ele>5.25</ele>
        <time>2013-04-14T15:26:12Z</time>
      </trkpt>
      <trkpt lat="43.76644" lon="4.69478">
        <ele>5.13</ele>
        <time>2013-04-14T15:26:38Z</time>
      </trkpt>
      <trkpt lat="43.76651" lon="4.69455">
        <ele>3.58</ele>
        <time>2013-04-14T15:26:53Z</time>
      </trkpt>
      <trkpt lat="43.76655" lon="4.69439">
        <ele>3.03</ele>
        <time>2013-04-14T15:27:05Z</time>
      </trkpt>
      <trkpt lat="43.76657" lon="4.69425">
        <ele>0.75</ele>
        <time>2013-04-14T15:27:23Z</time>
      </trkpt>
      <trkpt lat="43.76656" lon="4.69422">
        <ele>0.58</ele>
        <time>2013-04-14T15:27:28Z</time>
      </trkpt>
    </trkseg>
  </trk>
</gpx>